beeeboopbop Games - Total: 12017
1 2 3 4 5 6 7 8 9 10 11 12 13
Rank Song Name Score PGAMB Combo Time
1,737 thinking of you 140,205 88 - 3 - 0 - 0 - 1 91 2022-10-24 08:28:36
121 cafe terrace at dusk 346,805 218 - 7 - 0 - 0 - 1 225 2022-10-24 08:27:40
467 No Time For Sleep 341,955 216 - 6 - 1 - 5 - 0 223 2022-10-24 08:27:08
2,584 MANIERA 22,015 7 - 9 - 0 - 1 - 0 16 2022-10-24 08:26:00
510 Super Soaker 75,675 48 - 1 - 0 - 0 - 0 49 2022-10-24 08:25:22
4,434 Music (For Kirby) 156,055 100 - 0 - 1 - 0 - 0 101 2022-10-24 08:15:15
260 Carlinism [PB] 336,935 278 - 1 - 0 - 4 - 0 185 2022-10-24 08:14:48
1 Pretty Girls With Mental Disorders [AAA] [FC] [PB] 2,968,250 1,915 - 0 - 0 - 0 - 0 1,915 2022-10-24 08:13:37
105 Tanaka 103,575 66 - 1 - 0 - 0 - 0 67 2022-10-23 17:22:42
296 Miserable Bastard 1,129,850 724 - 6 - 0 - 0 - 0 730 2022-10-23 17:22:13
322 INSANE INFLAME 1,306,305 842 - 3 - 0 - 2 - 0 843 2022-10-23 17:20:22
416 Breakbeat Acid 1,373,165 882 - 5 - 0 - 1 - 0 887 2022-10-23 17:15:25
475 AiAe 2,428,990 1,564 - 4 - 0 - 1 - 0 1,568 2022-10-23 17:13:41
20 The Everlasting Calamity That Shifts The Time - Space Continuum On A Nanosecondal Basis [FC] [SR] 2,665,725 1,719 - 1 - 0 - 0 - 0 1,720 2022-10-23 17:11:37
437 sniffing stardust on the dancefloor 1,242,615 807 - 1 - 0 - 21 - 0 805 2022-10-23 17:07:27
62 sniffing stardust on the dancefloor [FC] [PB] 2,152,575 1,383 - 7 - 0 - 0 - 0 1,390 2022-10-23 17:06:21
1 My Lady Madeline, Part 2 [AAA] [FC] [PB] 1,751,500 1,130 - 0 - 0 - 0 - 0 1,130 2022-10-23 17:03:36
45 My Lady Madeline, Part 2 [PB] 1,260,365 1,128 - 1 - 0 - 1 - 0 640 2022-10-23 17:02:04
222 My Lady Madeline, Part 2 579,215 379 - 1 - 0 - 21 - 0 377 2022-10-23 17:00:16
145 Fractured Sunshine [PB] 1,646,980 1,780 - 2 - 0 - 5 - 1 669 2022-10-23 14:09:58
1,232 thinking of you 845,190 554 - 0 - 0 - 21 - 0 547 2022-10-23 14:05:29
58 Shuu no Hazama (Rainshower) [SR] 3,108,345 2,008 - 5 - 0 - 11 - 1 2,006 2022-10-23 14:04:26
117 cafe terrace at dusk 387,365 246 - 5 - 0 - 1 - 0 251 2022-10-23 14:02:06
425 Casino Fire Kotomi-chan 1,634,075 1,057 - 1 - 0 - 5 - 0 1,054 2022-10-23 14:01:19
475 Casino Fire Kotomi-chan 937,980 613 - 0 - 0 - 7 - 0 603 2022-10-23 13:59:34
1,549 Gunkienen Tarusuigin 1,347,175 865 - 7 - 0 - 8 - 1 872 2022-10-23 13:58:09
2,259 Azul (Remix) 295,790 242 - 2 - 0 - 6 - 0 164 2022-10-23 13:54:20
6,018 Girl Directions 32,310 29 - 5 - 1 - 15 - 21 20 2022-10-23 13:53:29
7,313 I Hate The 80s 52,700 38 - 0 - 0 - 20 - 0 38 2022-10-23 12:04:57
119 Casino Fire Kotomi-chan [PB] 1,862,015 1,231 - 1 - 0 - 1 - 0 1,185 2022-10-23 12:04:21
174 Casino Fire Kotomi-chan [SR] 1,322,210 1,223 - 8 - 0 - 2 - 1 648 2022-10-23 12:00:08
761 Galacta Knight 576,325 371 - 1 - 0 - 0 - 0 372 2022-10-23 11:57:10
22 Redemption Arp [1.2x] 198,265 124 - 5 - 0 - 1 - 0 129 2022-10-21 08:44:26
315 Rave 4 [1.35x] 1,550 1 - 0 - 0 - 0 - 0 1 2022-10-21 08:44:03
222 Nageki no mori (Breakcore Remix) [1.35x] 308,680 203 - 6 - 0 - 2 - 0 196 2022-10-21 08:43:56
123 Writing On The Walls (Final Sketch Remix) [1.4x] 822,095 551 - 5 - 0 - 1 - 1 518 2022-10-21 08:43:20
578 Galacta Knight [1.4x] 714,255 687 - 12 - 1 - 3 - 1 334 2022-10-21 08:42:16
1,274 All i wanna do is touch your powerpoints [1.4x] 1,075,010 1,349 - 50 - 6 - 12 - 15 323 2022-10-21 08:41:11
7,789 Blackout [The Flashbulb] [1.4x] 26,160 16 - 4 - 0 - 12 - 1 20 2022-10-21 08:38:44
8,339 Blackout [The Flashbulb] [1.4x] 1,840 5 - 0 - 0 - 9 - 6 2 2022-10-21 08:38:32
24 Andragoon [1.4x] [FC] 1,996,005 1,282 - 7 - 0 - 0 - 1 1,289 2022-10-21 08:37:30
45 Keep On Reachin' [1.75x] 242,965 213 - 17 - 2 - 3 - 2 122 2022-10-21 08:35:42
930 Gate Openerz [1.4x] 539,195 406 - 3 - 0 - 3 - 0 316 2022-10-21 08:35:06
95 The Everlasting Calamity That Shifts The Time - Space Continuum On A Nanosecondal Basis [1.4x] 1,278,975 1,495 - 26 - 3 - 5 - 2 451 2022-10-21 08:34:22
1,195 PrayStation [1.65x] 310,895 295 - 7 - 0 - 4 - 2 148 2022-10-21 08:32:38
2,456 A FLOWER GARDEN [1.65x] 246,150 229 - 10 - 0 - 5 - 0 119 2022-10-21 08:32:09
3,127 A FLOWER GARDEN [1.65x] 18,600 16 - 0 - 0 - 20 - 0 16 2022-10-21 08:31:48
15,200 Szamar Madar [2x] 86,865 55 - 7 - 0 - 1 - 0 55 2022-10-21 08:31:23
1,981 Bloody Tears [1.65x] 898,340 580 - 6 - 0 - 1 - 0 578 2022-10-21 08:31:02
125 CENSORED!! [1.65x] 1,460,030 1,344 - 53 - 1 - 2 - 9 707 2022-10-21 08:30:02
2,912 Makiba [2x] 136,035 97 - 7 - 0 - 4 - 0 82 2022-10-21 08:28:28
1,392 Dragonsbane [2x] 872,925 920 - 25 - 6 - 10 - 9 363 2022-10-21 08:28:14
3,081 ETERNAL DRAIN [1.95x] 269,055 286 - 17 - 0 - 6 - 3 109 2022-10-21 08:26:46
24 Deceptions of the Heart [1.95x] 2,974,490 1,907 - 20 - 2 - 3 - 2 1,921 2022-10-21 08:25:54
24 Deceptions of the Heart [1.85x] 2,225,145 1,916 - 9 - 0 - 23 - 0 1,176 2022-10-21 08:23:39
1,385 Car Sax [1.45x] 568,185 435 - 8 - 1 - 4 - 4 328 2022-10-21 08:20:53
239 Car Sax [1.35x] [FC] 1,673,055 1,072 - 9 - 0 - 0 - 1 1,081 2022-10-21 08:19:50
294 Ani Mevushal [1.35x] 2,382,815 1,527 - 12 - 1 - 1 - 4 1,540 2022-10-21 08:18:15
219 echoes of wind [1.35x] 939,740 838 - 21 - 3 - 16 - 7 478 2022-10-21 08:16:13
773 Guile of the Rime King [1.35x] 1,261,025 803 - 17 - 0 - 4 - 3 816 2022-10-21 08:15:05
1,858 Just why [1.56x] 167,190 109 - 3 - 1 - 2 - 1 107 2022-10-21 08:11:23
7,687 Setsujou! Hyakka Ryouran! [1.56x] 239,855 171 - 6 - 1 - 6 - 2 146 2022-10-21 08:11:03
1,809 The Rapids [1.56x] 515,715 338 - 17 - 0 - 6 - 0 327 2022-10-21 08:10:46
121 Anywhere But Here [1.56x] 1,137,835 971 - 15 - 0 - 4 - 5 601 2022-10-21 08:10:13
158 Anywhere But Here [1.56x] 254,560 191 - 19 - 5 - 3 - 3 145 2022-10-21 08:09:07
1,362 Valhalla [1.56x] 403,070 384 - 35 - 1 - 9 - 1 185 2022-10-21 08:08:39
136 CENSORED!! [1.56x] 972,825 904 - 26 - 3 - 5 - 7 470 2022-10-21 08:07:45
2,455 Setsujou! Hyakka Ryouran! [1.3x] 2,533,045 1,613 - 23 - 6 - 2 - 7 1,640 2022-10-21 08:06:31
1,120 Gourmet Na Aitsu [1.3x] 17,465 9 - 3 - 0 - 1 - 0 12 2022-10-21 08:04:14
1,421 Shitsubou Choco [1.3x] 218,485 136 - 7 - 0 - 4 - 0 143 2022-10-21 08:03:57
31 Tsui no Maihime [1.3x] 1,329,070 1,009 - 22 - 0 - 3 - 0 769 2022-10-21 08:03:22
819 Guile of the Rime King [1.3x] 866,595 651 - 27 - 0 - 6 - 1 503 2022-10-20 07:38:35
157 Traveler ~Stand Aloof~ [Oni] [1.3x] 478,280 318 - 0 - 0 - 2 - 0 304 2022-10-20 07:37:17
432 Wanderflux 846,980 552 - 0 - 0 - 2 - 0 544 2022-10-14 13:03:48
899 Music -corrupted mix- 719,310 528 - 2 - 0 - 2 - 1 429 2022-10-14 13:03:02
293 Gamma Stop Sending Me High Quality Rips 1,001,455 714 - 5 - 0 - 2 - 0 608 2022-10-14 13:01:54
80 eXXXcaliborg.Error 442,470 295 - 2 - 0 - 1 - 1 280 2022-10-13 11:41:05
98 Clockwork Dragon 394,075 249 - 9 - 0 - 1 - 2 255 2022-10-13 11:40:39
72 DIST SQUAD 1,342,950 865 - 2 - 0 - 1 - 2 867 2022-10-13 11:40:02
93 DIST SQUAD 408,665 263 - 0 - 1 - 0 - 2 264 2022-10-13 11:39:12
476 Verse IV 70,200 42 - 4 - 0 - 0 - 0 46 2022-10-12 16:41:05
440 Verse IV 189,825 121 - 3 - 0 - 5 - 0 124 2022-10-12 16:40:57
294 Amnehilesie 818,070 528 - 0 - 0 - 1 - 1 528 2022-10-12 16:40:24
912 Hello (BPM) 2021 212,110 143 - 4 - 0 - 2 - 1 133 2022-10-12 11:00:25
313 Gamma Stop Sending Me High Quality Rips 930,060 600 - 5 - 1 - 1 - 3 599 2022-10-12 10:59:58
159 toromi hearts 2 627,165 404 - 1 - 0 - 1 - 0 405 2022-10-12 10:58:59
76 cafe terrace at dusk [PB] 1,779,840 1,150 - 6 - 0 - 1 - 0 1,146 2022-10-12 10:58:18
4,398 Rave 7 739,690 479 - 2 - 0 - 1 - 0 476 2022-10-09 11:52:40
442 Pictured as Perfect 70,750 44 - 2 - 0 - 0 - 0 46 2022-10-09 11:51:56
414 Pictured as Perfect 185,485 119 - 0 - 1 - 0 - 1 120 2022-10-09 11:51:47
368 Pictured as Perfect 470,685 303 - 0 - 1 - 0 - 1 304 2022-10-09 11:51:24
3,265 A Quick Death 731,010 470 - 2 - 0 - 0 - 2 472 2022-10-09 11:50:48
502 Maybe All This Time I Was Wrong [1.4x] 538,260 509 - 20 - 0 - 7 - 1 255 2022-10-09 11:49:20
888 Diamante Spectrasplosion [1.4x] 741,555 661 - 14 - 3 - 3 - 4 375 2022-10-09 11:48:09
597 Galacta Knight [1.4x] 882,970 631 - 16 - 2 - 5 - 2 533 2022-10-09 11:46:33
1,022 All i wanna do is touch your powerpoints [1.4x] 1,398,360 1,362 - 44 - 2 - 9 - 8 640 2022-10-09 11:44:30
65 Banana Seat Girl [1.4x] 532,605 389 - 1 - 0 - 2 - 0 319 2022-10-09 11:42:36
1,231 The Simpsons [1.4x] 780,200 880 - 33 - 1 - 9 - 7 290 2022-10-09 11:40:32
748 WE EAT AT FIVE FIVE FIVE (guys) [1.3x] 1,120,700 1,072 - 18 - 4 - 3 - 7 527 2022-10-09 11:39:20
8,840 PANTS [1.3x] 58,350 36 - 2 - 0 - 0 - 0 38 2022-10-09 11:38:07
853 Ehhen Doyadosu? Tengujiman [1.3x] 977,700 905 - 21 - 7 - 3 - 14 475 2022-10-09 11:37:41
803 Gate Openerz [1.35x] 877,835 651 - 11 - 0 - 4 - 0 518 2022-10-09 11:35:20
32 ZENITHALIZE 462,775 337 - 5 - 0 - 3 - 1 277 2022-10-09 11:34:22
1,802 Call me it. (500 Tortures) 825,325 530 - 3 - 0 - 0 - 0 533 2022-10-09 11:33:44
171 Take 2,173,870 1,402 - 4 - 0 - 1 - 1 1,402 2022-10-09 11:32:49
69 DIST SQUAD 1,050,480 941 - 2 - 0 - 2 - 0 533 2022-10-09 11:30:22
91 DIST SQUAD 377,120 242 - 1 - 1 - 1 - 0 244 2022-10-09 11:29:28
80 Boxel Adventure 2,470,825 1,595 - 7 - 0 - 1 - 2 1,592 2022-10-09 11:28:49
191 Excuse My Rudeness, but Could You Please RIP? (t+pazolite Remix) 34,205 22 - 0 - 1 - 3 - 1 23 2022-10-09 11:26:43
1,057 Counter Clockwise Chant Pattern 1,645,940 1,074 - 2 - 0 - 1 - 0 1,055 2022-10-09 11:25:07
1,597 Counter Clockwise Chant Pattern 264,775 170 - 1 - 0 - 0 - 0 171 2022-10-09 11:23:34
1,513 Counter Clockwise Chant Pattern 476,470 308 - 0 - 0 - 3 - 0 308 2022-10-09 11:22:29
165 one of none [1.3x] 104,215 90 - 11 - 0 - 1 - 0 52 2022-10-09 11:21:42
61 toroidal earth society [1.3x] 620,080 587 - 9 - 1 - 4 - 3 296 2022-10-09 11:20:58
409 Inferno of Fomalhaut 347,340 242 - 4 - 0 - 6 - 0 215 2022-10-08 08:57:13
101 Tanaka [1.2x] 170,295 116 - 3 - 0 - 1 - 1 106 2022-10-07 09:09:03
101 Tanaka [1.2x] 100,850 74 - 4 - 0 - 3 - 1 60 2022-10-07 09:08:51
1,749 The Limit Does Not Exist [1.3x] 856,120 718 - 20 - 0 - 4 - 2 457 2022-10-07 09:08:17
1,311 Zombie Sunset [1.3x] 1,113,760 974 - 12 - 0 - 4 - 0 576 2022-10-07 09:07:06
1,303 All i wanna do is touch your powerpoints [1.3x] 1,249,305 1,351 - 44 - 3 - 19 - 6 500 2022-10-07 09:05:20
1,439 My Fxxkin Desire For You [1.3x] 531,390 464 - 20 - 0 - 1 - 0 271 2022-10-06 09:20:09
1,892 My Fxxkin Desire For You [1.3x] 19,425 14 - 1 - 0 - 5 - 0 13 2022-10-06 09:19:30
471 Coconut Aventure [1.3x] 229,710 143 - 12 - 0 - 4 - 0 149 2022-10-06 07:26:31
592 Pretty Girls With Mental Disorders [1.35x] 434,330 458 - 19 - 3 - 6 - 5 179 2022-10-06 05:41:30
1,380 Resistance 4 [1.35x] 563,100 361 - 4 - 0 - 5 - 0 365 2022-10-06 05:40:33
713 Galacta Knight [1.35x] 363,660 434 - 30 - 0 - 17 - 1 122 2022-10-06 05:38:53
856 Galacta Knight [1.35x] 245,455 212 - 11 - 0 - 7 - 0 128 2022-10-06 05:38:23
3,687 All i wanna do is touch your powerpoints [1.3x] 784,735 498 - 10 - 1 - 3 - 2 509 2022-10-06 05:36:12
315 That's Gonna Be 515,270 335 - 2 - 0 - 21 - 1 337 2022-10-01 14:27:59
2,124 You Universe 168,405 100 - 11 - 0 - 2 - 0 111 2022-10-01 14:27:17
2,816 Heterochromia Iridis 316,545 212 - 1 - 0 - 1 - 1 200 2022-10-01 14:26:20
67 Comatose State 1,842,690 1,438 - 4 - 0 - 1 - 0 1,051 2022-10-01 14:25:40
53 Neko Nadetai 1,621,060 1,719 - 15 - 1 - 5 - 1 673 2022-10-01 14:23:15
426 Wanderflux 841,895 548 - 3 - 0 - 1 - 1 540 2022-10-01 14:21:16
405 Wanderflux 1,022,450 658 - 2 - 0 - 0 - 0 660 2022-10-01 14:20:28
69 Real Ultimate Power 1,143,240 740 - 2 - 0 - 1 - 0 736 2022-10-01 14:19:42
343 I'm A Fucking Idiot 968,615 621 - 5 - 0 - 1 - 0 626 2022-10-01 14:18:39
422 Odd-22 2,144,735 1,380 - 5 - 0 - 2 - 1 1,385 2022-10-01 14:17:21
178 Mishnu 1,028,695 685 - 1 - 0 - 1 - 1 652 2022-10-01 14:15:30
19 Schwerkraft [PB] 2,915,650 2,166 - 28 - 0 - 1 - 2 1,717 2022-10-01 14:14:13
78 Clockwork Dragon 1,170,965 759 - 3 - 0 - 1 - 0 753 2022-10-01 14:12:04
46 Mdrqnxtagon 1,909,640 1,687 - 5 - 1 - 2 - 1 981 2022-10-01 14:10:53
39 Exam Cram [Oni] [FC] [PB] 2,437,600 1,571 - 2 - 0 - 0 - 0 1,573 2022-10-01 14:07:10
430 Angelic Jelly [SR] 669,325 431 - 1 - 0 - 0 - 0 432 2022-10-01 14:04:54
90 Tanaka 962,275 620 - 1 - 0 - 0 - 0 621 2022-10-01 14:03:56
18 !!!Chaos Time!!! [Cut Edition] [PB] 2,185,040 1,756 - 2 - 0 - 1 - 0 1,219 2022-10-01 14:02:42
104 Boxel Adventure 43,105 27 - 1 - 0 - 0 - 1 28 2022-10-01 14:00:36
436 Pictured as Perfect 85,320 54 - 2 - 0 - 3 - 0 56 2022-10-01 14:00:11
71 DIST SQUAD 1,094,355 714 - 1 - 0 - 2 - 0 702 2022-10-01 13:59:50
8,419 Almost There [Oni] 640,105 411 - 1 - 2 - 1 - 1 414 2022-10-01 13:58:57
14 ZENITHALIZE [SR] 578,150 370 - 7 - 1 - 1 - 1 373 2022-10-01 13:58:00
19 Happy Ending (Kkrusty's We Ready Remix) [PB] 1,899,390 1,253 - 2 - 0 - 1 - 0 1,210 2022-10-01 13:56:58
276 Happy Ending (Kkrusty's We Ready Remix) 383,740 251 - 0 - 0 - 1 - 0 246 2022-10-01 13:54:37
1,094 grind4 249,820 164 - 2 - 0 - 3 - 0 160 2022-10-01 13:53:51
151 FACTORY_RESET 642,975 414 - 1 - 0 - 0 - 0 415 2022-10-01 13:53:03
146 FACTORY_RESET 736,080 474 - 1 - 1 - 3 - 1 476 2022-10-01 13:52:23
17 FACTORY_RESET [FC] [PB] 2,110,825 1,361 - 1 - 0 - 0 - 0 1,362 2022-10-01 13:51:26
400 No Time For Sleep 574,020 366 - 6 - 0 - 3 - 0 372 2022-10-01 13:49:41
121 Mike French Hardcore Custom 10,850 7 - 0 - 0 - 0 - 0 7 2022-10-01 13:48:38
18 Mike French Hardcore Custom [SR] 1,507,840 973 - 0 - 0 - 1 - 0 973 2022-10-01 13:47:22
111 cafe terrace at dusk [PB] 534,285 341 - 5 - 0 - 2 - 1 346 2022-10-01 13:46:00
973 Gate Openerz [1.4x] 499,615 321 - 7 - 0 - 6 - 0 323 2022-10-01 11:18:48
992 Diamante Spectrasplosion [1.45x] 485,340 412 - 18 - 0 - 7 - 2 256 2022-09-30 13:00:41
230 Fotvaerk [1.45x] 208,400 144 - 10 - 0 - 5 - 0 128 2022-09-30 12:59:42
491 Galacta Knight [1.35x] 1,163,990 1,150 - 37 - 9 - 10 - 4 524 2022-09-30 12:58:21
76 Clockwork Dragon 1,178,795 752 - 15 - 0 - 3 - 0 762 2022-09-29 08:54:01
81 Clockwork Dragon 572,015 371 - 1 - 0 - 1 - 0 368 2022-09-29 08:53:13
865 DISCHARGE RUSH 1,584,275 1,018 - 5 - 0 - 0 - 0 1,023 2022-09-29 08:51:37
208 LWVIIX (Lawn Wake 69) [SR] 583,270 416 - 18 - 0 - 8 - 0 352 2022-09-29 08:50:04
388 Extratone Firestorm 852,885 796 - 17 - 4 - 9 - 1 413 2022-09-29 08:49:31
67 PEACE BREAKER 1,274,115 1,038 - 11 - 4 - 3 - 5 701 2022-09-29 08:48:33
177 Mishnu 720,555 676 - 5 - 0 - 2 - 0 348 2022-09-29 08:47:13
257 Six Acid Strings 1,380,640 1,148 - 4 - 2 - 3 - 2 749 2022-09-29 08:46:13
54 eXXXcaliborg.Error 795,380 741 - 18 - 0 - 10 - 1 386 2022-09-29 08:17:36
2,555 Call me it. (500 Tortures) [1.2x] 371,815 283 - 4 - 1 - 3 - 3 216 2022-09-29 08:15:59
1,311 thinking of you [1.4x] 552,415 451 - 13 - 2 - 4 - 4 302 2022-09-29 08:15:21
456 FREEDOM DiVE [1.5x] 430,795 349 - 15 - 0 - 4 - 2 236 2022-09-29 08:14:32
2,720 Super Mario Main Theme [1.5x] 61,105 39 - 1 - 0 - 2 - 0 40 2022-09-29 08:14:01
481 Inferno of Fomalhaut [1.5x] 98,680 64 - 5 - 1 - 3 - 1 63 2022-09-29 08:13:51
156 hurricanic [1.5x] 359,685 237 - 1 - 2 - 3 - 6 230 2022-09-29 08:13:39
159 hurricanic [1.5x] 158,780 108 - 0 - 0 - 2 - 0 100 2022-09-29 08:13:20
86 The Everlasting Calamity That Shifts The Time - Space Continuum On A Nanosecondal Basis [1.5x] 1,180,330 1,465 - 48 - 2 - 21 - 11 368 2022-09-29 08:13:02
109 CENSORED!! [1.7x] 982,335 1,139 - 27 - 0 - 8 - 3 351 2022-09-29 08:10:56
62 CENSORED!! [1.55x] 1,772,280 1,571 - 25 - 1 - 2 - 4 902 2022-09-29 08:09:35
5,943 super mario bros theme (original NES is awesome) [1.55x] 183,305 123 - 1 - 0 - 2 - 0 116 2022-09-29 08:07:56
1,957 Level Skip [1.55x] 28,590 18 - 2 - 0 - 6 - 0 20 2022-09-29 08:07:26
383 C204 [1.55x] 523,445 386 - 27 - 2 - 17 - 6 309 2022-09-29 08:07:04
108 Don Pardo Pimpwagon [1.55x] 2,036,450 2,261 - 52 - 4 - 8 - 7 781 2022-09-29 08:05:57
1,568 The Simpsons [1.55x] 362,720 401 - 74 - 4 - 14 - 3 126 2022-09-29 08:03:19
2,019 The Simpsons [1.55x] 208,050 189 - 7 - 1 - 6 - 1 104 2022-09-29 08:02:38
2,935 Ofcourse you Need and nEed and neEd and neeD and NEED ME? [1.55x] 211,345 193 - 21 - 0 - 8 - 5 102 2022-09-29 08:02:07
2,388 Gotta Catch 'Em All [1.55x] 581,270 629 - 24 - 4 - 8 - 1 231 2022-09-29 08:01:28
227 E-Lectixilent [1.55x] 1,384,770 1,129 - 22 - 2 - 4 - 5 759 2022-09-29 08:00:37
314 E-Lectixilent [1.55x] 8,680 6 - 0 - 0 - 2 - 0 6 2022-09-29 07:59:18
300 Smash and Burn [1.55x] 514,920 341 - 6 - 0 - 4 - 2 327 2022-09-29 07:59:11
244 Railing [1.35x] 262,475 220 - 12 - 1 - 6 - 1 140 2022-09-29 07:58:23
669 Galacta Knight [1.35x] 533,660 500 - 15 - 1 - 8 - 2 257 2022-09-29 07:57:35
590 LeaF Style Super Shredder 3 [1.35x] 141,785 140 - 6 - 1 - 6 - 3 65 2022-09-29 07:56:55
142 Bust It Out [1.35x] 82,730 76 - 2 - 0 - 2 - 0 41 2022-09-29 07:56:34
1,977 The Limit Does Not Exist [1.35x] 398,310 321 - 11 - 1 - 4 - 4 220 2022-09-29 07:55:59
1,691 Rock Rock Rock (t+pazolite Remix) [1.35x] 335,255 204 - 17 - 0 - 2 - 0 219 2022-09-29 07:55:26
239 Nageki no mori (Breakcore Remix) [1.35x] 139,365 88 - 5 - 0 - 11 - 0 93 2022-09-28 18:01:22
4,164 Fireball 242,355 244 - 19 - 4 - 7 - 6 105 2022-09-27 12:52:01
74 eXXXcaliborg.Error 359,665 273 - 3 - 0 - 1 - 0 209 2022-09-27 12:51:29
472 Extratone Firestorm 580,835 529 - 11 - 2 - 7 - 4 289 2022-09-27 12:51:10
1,129 Make the Fire Burn 472,200 303 - 2 - 0 - 0 - 0 305 2022-09-27 12:50:30
12,964 Reluctantly Accepting Temporary Overexhaustion 916,215 589 - 13 - 0 - 1 - 0 589 2022-09-27 12:48:31
1,450 Call me it. (500 Tortures) [1.1x] 1,113,635 1,032 - 64 - 3 - 5 - 9 530 2022-09-26 12:46:55
962 Gate Openerz [1.4x] 504,155 328 - 5 - 0 - 2 - 0 323 2022-09-25 11:38:17
214 Inferno of Fomalhaut [1.15x] 1,647,130 1,602 - 45 - 11 - 31 - 17 763 2022-09-25 07:43:50
2,514 Call me it. (500 Tortures) [1.15x] 368,190 288 - 4 - 0 - 1 - 0 209 2022-09-25 07:41:35
1,329 thinking of you [1.2x] 564,760 434 - 3 - 1 - 22 - 0 332 2022-09-25 07:36:17
1,758 thinking of you 94,550 61 - 0 - 0 - 0 - 0 61 2022-09-25 07:35:39
282 Gameshow Suitcase 515,355 452 - 5 - 0 - 2 - 0 266 2022-09-25 07:35:13
1,540 Slashmaid (instrumental) 1,011,860 826 - 16 - 2 - 3 - 1 554 2022-09-25 07:33:58
186 Paradoxical time leap trial 46,225 29 - 1 - 0 - 0 - 0 30 2022-09-25 04:10:47
389 Playing Super Mario World While Taking Mushrooms 2,297,755 2,527 - 33 - 0 - 23 - 2 906 2022-09-25 04:09:33
158 toromi hearts 2 463,485 299 - 1 - 0 - 4 - 0 300 2022-09-25 04:05:00
76 Nageki no mori (Breakcore Remix) 2,393,685 1,930 - 27 - 0 - 4 - 0 1,326 2022-09-25 04:04:08
316 LeaF Style Super Shredder 3 1,346,265 1,366 - 21 - 0 - 25 - 3 597 2022-09-25 04:01:42
17,913 {Lost Memories} 152,400 108 - 25 - 1 - 25 - 9 94 2022-09-23 11:46:52
858 Embrace [SR] 113,200 108 - 25 - 1 - 25 - 19 55 2022-09-23 11:43:04
20,088 London Bridges [SR] 185,130 169 - 55 - 3 - 3 - 9 78 2022-09-23 11:42:06
1,607 Senki Dala [SR] 157,300 151 - 40 - 0 - 5 - 10 65 2022-09-23 11:39:23
46,885 Eien Meikyu [PB] 109,060 83 - 11 - 1 - 5 - 6 62 2022-09-23 11:36:32
84,774 Eien Meikyu 135 1 - 1 - 0 - 5 - 7 1 2022-09-23 11:34:49
1,223 My Fxxkin Desire For You 1,128,515 850 - 21 - 0 - 12 - 2 659 2022-09-22 16:16:38
1,623 My Fxxkin Desire For You 235,595 152 - 1 - 0 - 4 - 2 153 2022-09-22 16:14:58
1,685 My Fxxkin Desire For You [1.24x] 138,045 96 - 1 - 0 - 13 - 0 89 2022-09-22 16:14:23
524 Galacta Knight 1,408,120 993 - 18 - 0 - 16 - 1 862 2022-09-22 16:13:39
1,371 Extratone Pirates (Drunk Optimus Remix) 1,581,865 1,015 - 7 - 0 - 1 - 0 1,022 2022-09-22 11:47:03
108 Mike French Hardcore Custom [1.1x] 897,280 592 - 12 - 0 - 2 - 0 569 2022-09-22 09:51:31
1,207 The Devil Plays Dance Games [1.1x] 771,800 495 - 6 - 0 - 10 - 0 501 2022-09-22 09:48:26
97 The Everlasting Calamity That Shifts The Time - Space Continuum On A Nanosecondal Basis [1.3x] 547,675 374 - 33 - 0 - 10 - 0 336 2022-09-22 09:46:05
282 adolescent person 78,195 51 - 3 - 0 - 2 - 3 50 2022-09-22 06:42:55
39 Star of the COME ON!! 2,375,830 2,308 - 50 - 0 - 4 - 4 1,094 2022-09-21 10:01:21
637 Extratone Pirates (Drunk Optimus Remix) 1,315,380 1,536 - 146 - 6 - 12 - 9 434 2022-09-21 09:58:21
120 Excuse My Rudeness, but Could You Please RIP? (t+pazolite Remix) 2,855,660 2,007 - 35 - 1 - 9 - 4 1,745 2022-09-21 09:54:28
932 Call me it. (500 Tortures) 2,104,550 1,487 - 41 - 1 - 21 - 6 1,282 2022-09-20 14:49:09
94 The Everlasting Calamity That Shifts The Time - Space Continuum On A Nanosecondal Basis [1.3x] 619,810 438 - 27 - 1 - 21 - 3 378 2022-09-20 14:46:59
86 Eternal Peace Is Nothing But An Illusion 2,368,990 1,857 - 18 - 0 - 1 - 0 1,343 2022-09-20 14:46:09
1,399 All i wanna do is touch your powerpoints [1.3x] 1,063,080 1,341 - 52 - 2 - 22 - 3 318 2022-09-20 09:54:03
976 8bit Adventurer 1,329,450 1,014 - 4 - 0 - 1 - 2 771 2022-09-20 09:51:09
1,126 The Devil Plays Dance Games [1.3x] 906,680 703 - 24 - 0 - 5 - 1 515 2022-09-20 09:45:04
77 You Don't Know [PB] 1,414,875 912 - 1 - 0 - 0 - 0 913 2022-09-20 09:43:48
82 You Don't Know [PB] 925,795 599 - 1 - 0 - 3 - 0 597 2022-09-20 09:40:01
93 You Don't Know [SR] 514,190 329 - 6 - 0 - 11 - 0 335 2022-09-20 09:36:22
217 That's Gonna Be [PB] 1,269,655 1,279 - 15 - 0 - 6 - 3 564 2022-09-19 10:43:35
516 PhonDrome! [Oni] 349,730 224 - 2 - 0 - 0 - 1 226 2022-09-19 10:41:57
77 Clockwork Dragon 424,130 272 - 2 - 0 - 0 - 1 274 2022-09-19 10:41:23
108 Reluctantly Accepting Temporary Overexhaustion 1,446,110 1,575 - 21 - 1 - 3 - 2 575 2022-09-19 10:40:47
758 Reluctantly Accepting Temporary Overexhaustion 1,594,395 1,322 - 23 - 0 - 3 - 5 862 2022-09-19 10:39:10
23,804 Reluctantly Accepting Temporary Overexhaustion 37,665 34 - 1 - 0 - 1 - 0 19 2022-09-19 10:37:57
23,749 Reluctantly Accepting Temporary Overexhaustion 55,505 35 - 1 - 0 - 0 - 1 36 2022-09-19 10:37:51
23,940 Reluctantly Accepting Temporary Overexhaustion 50,600 31 - 2 - 0 - 0 - 0 33 2022-09-19 10:37:46
96 Reluctantly Accepting Temporary Overexhaustion [PB] 1,928,170 1,576 - 22 - 0 - 2 - 3 1,056 2022-09-19 10:37:35
51 Real Ultimate Power 1,892,905 1,261 - 6 - 1 - 1 - 2 1,198 2022-09-19 10:35:17
10 Real Ultimate Power 2,164,325 2,046 - 12 - 1 - 1 - 1 1,036 2022-09-19 10:33:43
432 Hello (BPM) 2021 [PB] 866,820 666 - 32 - 0 - 4 - 2 493 2022-09-19 10:30:51
233 Wanderflux 2,075,340 1,989 - 6 - 0 - 4 - 1 981 2022-09-19 10:30:00
535 Odd-22 1,150,565 751 - 3 - 0 - 1 - 0 737 2022-09-19 10:27:07
35 Odd-22 [FC] [PB] 3,496,680 2,251 - 6 - 0 - 0 - 1 2,257 2022-09-19 10:26:02
891 Odd-22 204,325 131 - 1 - 0 - 0 - 0 132 2022-09-19 10:23:33
155 Mishnu 1,358,405 1,283 - 5 - 0 - 2 - 0 652 2022-09-19 10:23:01
23 Mishnu [PB] 4,255,830 2,820 - 8 - 0 - 1 - 3 2,703 2022-09-19 10:21:16
206 Mishnu 506,555 326 - 1 - 0 - 0 - 1 327 2022-09-19 10:17:56
206 Mishnu 506,555 326 - 1 - 0 - 0 - 1 327 2022-09-19 10:17:06
751 Make the Fire Burn 1,069,725 777 - 7 - 2 - 2 - 2 641 2022-09-19 10:16:26
571 Staple on Smile 1,315,920 1,402 - 4 - 0 - 4 - 2 545 2022-09-19 10:15:04
26 Blackmagik Blazing [SR] 3,639,870 3,943 - 4 - 2 - 3 - 3 1,471 2022-09-19 10:13:18
86 Comatose State 162,190 128 - 4 - 0 - 1 - 0 91 2022-09-19 10:08:33
4,468 Rave 7 676,965 438 - 5 - 0 - 1 - 0 435 2022-09-19 10:07:37
390 Exam Cram [Oni] 958,715 625 - 1 - 0 - 1 - 0 615 2022-09-19 10:06:57
61 Exam Cram [Oni] 1,710,605 1,568 - 3 - 0 - 2 - 0 848 2022-09-19 10:06:03
525 Gate Openerz [1.4x] 1,411,810 1,736 - 83 - 1 - 25 - 6 442 2022-09-19 10:01:35
288 Odd-22 2,795,225 1,806 - 8 - 1 - 1 - 1 1,800 2022-09-18 13:53:04
1,155 Odd-22 15,500 10 - 0 - 0 - 0 - 0 10 2022-09-18 13:50:55
49 Clockwork Dragon 1,951,950 1,791 - 8 - 0 - 4 - 3 966 2022-09-18 13:49:44
37 Mdrqnxtagon 2,112,445 1,684 - 8 - 1 - 3 - 4 1,185 2022-09-18 13:47:11
37 Real Ultimate Power 2,214,170 1,847 - 8 - 0 - 6 - 1 1,198 2022-09-18 13:43:32
12 F.F.R ~FINAL FRONTIER RESOLUTION~ [PB] 2,264,750 2,767 - 19 - 3 - 11 - 4 741 2022-09-18 13:40:39
83 Neko Nadetai 937,760 605 - 6 - 0 - 2 - 1 604 2022-09-18 13:37:43
309 That's Gonna Be 476,535 335 - 7 - 0 - 2 - 1 291 2022-09-18 13:36:27
14 Neko Nadetai [PB] 2,256,285 1,898 - 21 - 0 - 1 - 4 1,207 2022-09-18 13:35:04
91 Neko Nadetai 56,285 34 - 2 - 1 - 0 - 1 37 2022-09-18 13:33:05
50 eXXXcaliborg.Error [PB] 918,485 900 - 19 - 2 - 9 - 3 421 2022-09-18 13:32:45
61 eXXXcaliborg.Error 568,265 366 - 1 - 0 - 1 - 0 367 2022-09-18 13:31:56
548 Break The Silence 207,280 138 - 0 - 0 - 2 - 0 132 2022-09-18 13:31:31
13,171 Reluctantly Accepting Temporary Overexhaustion 726,150 563 - 22 - 0 - 5 - 0 412 2022-09-18 11:52:18
682 We Want To Run [1800x] 0 0 - 0 - 0 - 387 - 4 0 2022-09-17 09:05:59
425 I'm A Fucking Idiot 607,050 390 - 2 - 0 - 0 - 0 392 2022-09-17 08:53:47
4,781 Fireball 247,725 162 - 13 - 0 - 3 - 1 156 2022-09-16 15:38:12
4,424 Fireball 279,865 206 - 19 - 0 - 2 - 2 162 2022-09-16 15:37:49
53 eXXXcaliborg.Error 705,135 636 - 13 - 0 - 4 - 0 353 2022-09-16 15:37:12
147 Fury [SR] 1,916,955 1,948 - 15 - 0 - 5 - 1 843 2022-09-16 15:36:26
2,348 Slashmaid (instrumental) [1.35x] 595,710 364 - 31 - 1 - 3 - 7 388 2022-09-16 15:32:27
447 Angelic Jelly [1.35x] 242,145 246 - 15 - 0 - 4 - 2 104 2022-09-16 15:31:54
184 Nageki no mori (Breakcore Remix) [1.35x] 706,405 628 - 16 - 3 - 8 - 4 359 2022-09-16 15:31:10
1,742 The Limit Does Not Exist [1.35x] 852,635 715 - 11 - 0 - 2 - 1 457 2022-09-16 15:30:17
837 Love Hurts (Lonely Dance Mix) [1.35x] 644,470 473 - 43 - 1 - 8 - 4 375 2022-09-16 15:28:58
124 hurricanic [1.35x] 1,003,375 1,171 - 39 - 2 - 11 - 5 352 2022-09-16 15:28:19
562 Pretty Girls With Mental Disorders [1.35x] 756,230 485 - 4 - 0 - 2 - 0 489 2022-09-16 15:26:36
374 MEGA MEGA CUTiE BREAKiN'!!!!!!!!z [1.35x] 829,555 761 - 8 - 1 - 7 - 4 411 2022-09-16 15:25:49
281 the nature of dying [1.35x] 788,445 942 - 20 - 1 - 7 - 2 267 2022-09-16 15:24:37
546 Galacta Knight [1.35x] 991,865 804 - 16 - 3 - 6 - 2 547 2022-09-16 15:22:53
952 The Devil Plays Dance Games [1.35x] 1,195,280 1,159 - 16 - 0 - 5 - 1 555 2022-09-16 15:20:56
971 100 Hours of Regrets [1.35x] 619,105 529 - 15 - 0 - 3 - 2 325 2022-09-16 15:18:08
859 Gate Openerz [1.4x] 747,440 480 - 10 - 0 - 1 - 0 481 2022-09-16 15:14:26
522 G e n g a o z o 1,208,340 958 - 10 - 0 - 1 - 0 679 2022-09-16 11:17:03
50 Tanaka [1.2x] 1,732,195 1,689 - 20 - 1 - 7 - 7 800 2022-09-15 13:58:33
1,066 thinking of you [1.35x] 809,660 759 - 16 - 0 - 7 - 1 390 2022-09-15 13:56:13
25 Neko Nadetai 1,621,510 1,867 - 40 - 2 - 11 - 2 587 2022-09-14 11:38:41
1,121 thinking of you [1.35x] 732,610 686 - 20 - 0 - 7 - 1 352 2022-09-13 14:09:26
1,443 Extratone Pirates [1.3x] 383,425 352 - 15 - 0 - 4 - 3 187 2022-09-13 14:08:28
87 Ideal Ratio 4-1-2.5 (Viticz Remix) [Oni] [1.3x] 688,060 441 - 11 - 3 - 2 - 3 443 2022-09-13 14:07:53
213 Inferno of Fomalhaut [1.3x] 1,197,010 1,567 - 105 - 1 - 31 - 8 316 2022-09-13 14:07:15
497 AiAe [1.3x] 1,412,445 1,200 - 17 - 0 - 7 - 3 750 2022-09-13 14:05:17
80 Traveler ~Stand Aloof~ [Oni] [1.3x] 1,410,200 1,528 - 30 - 2 - 8 - 4 564 2022-09-13 14:03:58
822 Gate Openerz [1.4x] 851,260 553 - 11 - 1 - 3 - 2 545 2022-09-13 14:02:10
2,075 NaiNai 69 [1.65x] 320,250 292 - 8 - 0 - 5 - 0 159 2022-09-13 14:01:14
1,137 Requiem -Dies irae- [1.65x] 413,350 529 - 14 - 0 - 11 - 2 122 2022-09-13 14:00:37
417 Sakura Fubuki (Arrange Ver) [1.65x] 9,300 6 - 0 - 0 - 0 - 0 6 2022-09-13 14:00:00
2,231 Flamingo [1.65x] 530,790 425 - 12 - 0 - 4 - 1 295 2022-09-13 13:59:36
62 DIST SQUAD [1.2x] 724,395 654 - 23 - 0 - 5 - 4 360 2022-09-12 12:16:34
1,349 Call me it. (500 Tortures) [1.2x] 1,148,015 1,158 - 31 - 0 - 11 - 0 506 2022-09-12 12:15:42
1,494 Fushigi Usagi Milk Tei 1,303,960 1,125 - 45 - 27 - 1 - 17 672 2022-09-11 12:42:52
333 Symphonies Of Suckness 0 0 - 0 - 0 - 2 - 8 0 2022-09-11 12:40:09
88 Neko Nadetai 71,695 63 - 5 - 0 - 1 - 1 36 2022-09-11 12:39:35
90 Neko Nadetai [1.3x] 28,555 18 - 1 - 0 - 2 - 0 19 2022-09-11 12:39:20
87 Neko Nadetai 83,555 57 - 3 - 0 - 2 - 0 52 2022-09-06 10:49:07
590 Hello (BPM) 2021 [PB] 571,710 432 - 19 - 3 - 4 - 2 330 2022-09-06 10:48:56
657 Extratone Firestorm 232,345 146 - 5 - 0 - 1 - 1 151 2022-09-06 10:48:18
1 Stay [1.7x] [AAA] [FC] 1,058,650 683 - 0 - 0 - 0 - 0 683 2022-09-05 13:30:49
869 Ehhen Doyadosu? Tengujiman [1.35x] 781,595 890 - 31 - 0 - 11 - 1 287 2022-09-05 13:28:06
7,359 Across Rooftops [1.35x] 164,365 108 - 1 - 0 - 1 - 0 105 2022-09-05 13:27:14
525 Galacta Knight [1.35x] 859,165 951 - 47 - 0 - 9 - 1 326 2022-09-05 13:26:33
1,122 All i wanna do is touch your powerpoints [1.3x] 1,391,575 1,358 - 44 - 1 - 14 - 7 637 2022-09-05 13:25:17
627 Hello (BPM) 2021 [PB] 623,125 400 - 9 - 0 - 1 - 2 401 2022-09-03 14:09:54
4,379 The Disappearance of Hatsune Miku -Theatrical Version- [1.2x] 353,580 261 - 6 - 0 - 2 - 0 209 2022-09-03 14:09:17
187 Koi No Sibou Flag [1.2x] 1,068,855 1,059 - 13 - 0 - 7 - 0 485 2022-09-03 14:08:41
1,340 Call me it. (500 Tortures) [1.2x] 982,015 1,170 - 27 - 0 - 9 - 6 334 2022-09-03 14:07:21
358 FREEDOM DiVE [1.35x] 736,520 530 - 12 - 0 - 4 - 2 443 2022-09-03 14:05:55
757 gorechestra [1.4x] 86,140 58 - 2 - 0 - 1 - 0 54 2022-09-03 14:04:41
590 Gate Openerz [1.4x] 1,239,170 1,385 - 60 - 2 - 23 - 3 468 2022-09-03 14:04:09
748 Hello (BPM) 2021 298,400 245 - 7 - 1 - 1 - 1 162 2022-09-02 11:05:29
303 Wanderflux 2,204,385 1,475 - 5 - 0 - 4 - 0 1,393 2022-09-02 11:05:01
629 Wanderflux 235,600 152 - 0 - 0 - 0 - 0 152 2022-09-02 11:03:23
2,846 Louder!! Louder!!!! Louder!!!!!! [1.56x] 33,240 17 - 9 - 1 - 2 - 1 22 2022-09-02 10:07:28
1,337 DRAGONLADY [1.56x] 485,305 396 - 11 - 0 - 8 - 2 267 2022-09-02 10:07:17
6,785 Setsujou! Hyakka Ryouran! [1.56x] 335,205 252 - 20 - 1 - 3 - 1 192 2022-09-02 10:06:41
3,870 Megalovania [1.56x] 290,685 209 - 5 - 0 - 2 - 1 175 2022-09-02 10:06:13
87 Alive (Pegboard Nerds Remix) [Full Version] [1.45x] 20,150 13 - 0 - 0 - 0 - 0 13 2022-09-02 10:05:43
330 Jettison [1.45x] 258,540 209 - 8 - 0 - 5 - 3 143 2022-09-02 10:05:28
670 Ringo's Tea Party [1.45x] 1,285,840 969 - 17 - 3 - 3 - 1 749 2022-09-02 10:04:53
1,454 NaiNai 69 [1.45x] 815,315 826 - 26 - 1 - 7 - 1 356 2022-09-02 10:03:25
1,262 The Simpsons [1.45x] 734,880 833 - 23 - 1 - 5 - 5 272 2022-09-02 10:02:37
230 life flashes before weeb eyes [1.3x] 799,915 499 - 21 - 0 - 1 - 0 520 2022-09-02 10:01:22
1,221 Zombie Sunset [1.3x] 1,837,680 1,184 - 4 - 0 - 2 - 0 1,186 2022-09-02 10:00:12
1,277 All i wanna do is touch your powerpoints [1.3x] 1,075,825 1,351 - 46 - 1 - 19 - 2 326 2022-09-02 09:51:58
116 cafe terrace at dusk [1.1x] 183,605 116 - 3 - 0 - 0 - 1 119 2022-08-28 14:31:56
1,023 Counter Clockwise Chant Pattern [1.1x] 1,702,645 1,097 - 2 - 1 - 1 - 0 1,099 2022-08-28 14:31:09
536 LOSHAXI [1.1x] 301,975 194 - 1 - 0 - 0 - 0 195 2022-08-28 14:29:25
487 Punkture [1.1x] 988,120 810 - 2 - 0 - 3 - 0 543 2022-08-28 14:29:01
462 Finixe [1.1x] 1,550,065 1,001 - 4 - 1 - 2 - 1 999 2022-08-28 14:27:23
641 Finixe [1.1x] 182,590 118 - 0 - 0 - 1 - 0 118 2022-08-28 14:26:16
282 Miserable Bastard [1.1x] 1,133,190 728 - 4 - 0 - 1 - 0 732 2022-08-28 14:24:47
22 Miserable Bastard [1.1x] [FC] 2,031,225 1,308 - 3 - 0 - 0 - 0 1,311 2022-08-28 14:23:44
45 Shuu no Hazama (Rainshower) [1.1x] 1,641,280 1,056 - 4 - 0 - 2 - 0 1,060 2022-08-28 14:21:53
23 Paradoxical time leap trial [1.1x] [FC] 2,850,880 1,836 - 4 - 0 - 0 - 1 1,840 2022-08-28 14:20:17
62 DIST SQUAD [1.1x] 629,955 405 - 3 - 0 - 2 - 0 407 2022-08-28 14:17:24
159 toromi hearts 2 [1.15x] 260,530 173 - 0 - 0 - 2 - 0 166 2022-08-28 14:16:28
166 toromi hearts 2 [1.15x] 15,845 10 - 1 - 0 - 3 - 0 11 2022-08-28 14:16:14
236 Rave 3 [1.15x] 249,275 160 - 1 - 0 - 0 - 0 161 2022-08-28 14:16:07
365 Cest What [1.15x] 442,750 284 - 2 - 0 - 0 - 0 286 2022-08-28 14:15:33
427 Angelic Jelly [1.15x] 410,180 263 - 2 - 0 - 0 - 1 265 2022-08-28 14:14:57
294 Happy Ending (Kkrusty's We Ready Remix) [1.15x] 24,490 15 - 2 - 0 - 1 - 0 16 2022-08-28 14:14:25
1,106 grind4 [1.2x] 221,640 147 - 4 - 0 - 1 - 0 140 2022-08-28 14:13:41
177 Paradoxical time leap trial [1.2x] 150,670 103 - 1 - 1 - 1 - 0 94 2022-08-28 14:13:28
56 Shuu no Hazama (Rainshower) [1.2x] 157,825 101 - 1 - 0 - 0 - 0 102 2022-08-28 14:13:02
330 Miserable Bastard [1.2x] 670,000 436 - 2 - 0 - 1 - 2 430 2022-08-28 14:12:31
91 Boxel Adventure [1.2x] 89,065 79 - 1 - 0 - 2 - 2 46 2022-08-28 14:11:42
77 Tanaka [1.2x] 755,235 692 - 1 - 0 - 2 - 1 375 2022-08-28 14:11:02
117 toromi hearts 2 [1.2x] 1,375,575 885 - 3 - 0 - 0 - 0 888 2022-08-28 14:09:36
166 toromi hearts 2 [1.2x] 14,915 9 - 1 - 0 - 1 - 0 10 2022-08-28 14:08:44
32 Mdrqnxtagon 2,039,655 1,667 - 5 - 0 - 5 - 1 1,123 2022-08-28 14:07:16
141 Mishnu 1,950,090 1,724 - 9 - 1 - 2 - 1 1,000 2022-08-28 14:03:53
34 PEACE BREAKER 1,990,970 1,942 - 10 - 0 - 6 - 1 922 2022-08-28 14:01:13
536 Odd-22 915,150 742 - 0 - 0 - 3 - 1 508 2022-08-28 13:58:41
536 Odd-22 916,540 745 - 4 - 0 - 1 - 0 506 2022-08-28 13:57:26
42 Odd-22 3,288,115 2,251 - 5 - 0 - 1 - 0 2,049 2022-08-28 13:56:13
38 PhonDrome! [Oni] 2,503,340 1,796 - 8 - 0 - 2 - 2 1,514 2022-08-28 13:52:45
336 Six Acid Strings 645,560 415 - 1 - 1 - 0 - 1 417 2022-08-28 13:50:11
259 !!!Chaos Time!!! (Uncut Ed!t!on) [PB] 1,346,185 1,257 - 9 - 0 - 2 - 1 653 2022-08-28 13:47:07
694 Powerflux 1,861,530 1,229 - 8 - 0 - 2 - 0 1,184 2022-08-28 13:44:50
286 Gamma Stop Sending Me High Quality Rips 936,280 717 - 2 - 0 - 2 - 0 542 2022-08-28 13:43:28
23 Neko Nadetai 2,036,235 1,888 - 20 - 3 - 9 - 2 995 2022-08-28 13:42:06
302 Wanderflux 2,082,415 1,477 - 5 - 0 - 1 - 0 1,269 2022-08-28 13:40:02
13,823 Reluctantly Accepting Temporary Overexhaustion 751,745 487 - 3 - 0 - 3 - 0 484 2022-08-28 13:37:58
291 Wanderflux 2,430,195 1,585 - 6 - 3 - 1 - 3 1,557 2022-08-28 13:36:56
769 Wanderflux 3,100 2 - 0 - 0 - 0 - 0 2 2022-08-28 13:35:20
32 Wanderflux 3,146,180 3,025 - 10 - 0 - 4 - 4 1,481 2022-08-28 13:34:42
36 F.F.R ~FINAL FRONTIER RESOLUTION~ 1,495,460 1,440 - 6 - 2 - 4 - 3 703 2022-08-28 13:31:28
36 Wanderflux 4,156,480 3,019 - 17 - 1 - 2 - 4 2,492 2022-08-28 13:29:25
27 Wanderflux [PB] 3,587,085 3,028 - 7 - 0 - 4 - 0 1,921 2022-08-28 13:24:34
61 Clockwork Dragon 408,265 264 - 5 - 0 - 1 - 0 262 2022-08-28 13:21:23
33 Delta:for the DELTA (Camellia's "PLANETARY//DUBSTEP" Remix) 1,689,150 1,619 - 6 - 0 - 3 - 1 798 2022-08-28 13:20:24
7 Delta:for the DELTA (Camellia's "PLANETARY//DUBSTEP" Remix) [PB] 4,139,245 4,164 - 17 - 0 - 5 - 4 1,846 2022-08-28 13:17:49
39 Delta:for the DELTA (Camellia's "PLANETARY//DUBSTEP" Remix) [SR] 246,450 159 - 0 - 0 - 0 - 0 159 2022-08-28 13:11:53
36 Clockwork Dragon 2,295,295 1,832 - 13 - 0 - 6 - 1 1,286 2022-08-28 13:08:48
64 Clockwork Dragon 26,350 17 - 0 - 0 - 0 - 0 17 2022-08-28 13:03:39
10 Clockwork Dragon [PB] 2,557,465 2,061 - 15 - 0 - 7 - 2 1,422 2022-08-28 13:03:26
939 Call me it. (500 Tortures) [1.25x] 1,474,935 1,472 - 46 - 3 - 14 - 7 657 2022-08-28 12:51:04
178 Nageki no mori (Breakcore Remix) [1.4x] 773,175 701 - 16 - 1 - 9 - 2 386 2022-08-28 12:49:03
286 Carlinism [PB] 161,020 116 - 2 - 0 - 1 - 1 97 2022-08-26 15:53:56
311 Carlinism 74,090 67 - 2 - 0 - 1 - 0 37 2022-08-26 15:53:30
300 Carlinism 118,260 83 - 14 - 0 - 4 - 0 70 2022-08-26 15:53:02
305 Carlinism [SR] 103,380 68 - 24 - 0 - 2 - 0 60 2022-08-26 15:52:41
1 Excite Bike [Light] [AAA] [FC] 49,600 32 - 0 - 0 - 0 - 0 32 2022-08-26 15:51:35
1 Excite Bike [Light] [AAA] [FC] 49,600 32 - 0 - 0 - 0 - 0 32 2022-08-26 15:51:25
1 Excite Bike [Light] [AAA] [FC] 49,600 32 - 0 - 0 - 0 - 0 32 2022-08-26 15:51:15
1 Excite Bike [Light] [AAA] [FC] 49,600 32 - 0 - 0 - 0 - 0 32 2022-08-26 15:51:05
1 Excite Bike [Light] [AAA] [FC] 49,600 32 - 0 - 0 - 0 - 0 32 2022-08-26 15:50:55
121,404 Excite Bike [Light] 3,100 2 - 0 - 0 - 0 - 0 2 2022-08-26 15:50:36
125,144 Excite Bike [Light] 1,550 1 - 0 - 0 - 0 - 0 1 2022-08-26 15:50:28
125,144 Excite Bike [Light] 1,550 1 - 0 - 0 - 0 - 0 1 2022-08-26 15:50:25
125,144 Excite Bike [Light] 1,550 1 - 0 - 0 - 0 - 0 1 2022-08-26 15:50:23
125,144 Excite Bike [Light] 1,550 1 - 0 - 0 - 0 - 0 1 2022-08-26 15:50:21
125,144 Excite Bike [Light] 1,550 1 - 0 - 0 - 0 - 0 1 2022-08-26 15:50:18
125,144 Excite Bike [Light] 1,550 1 - 0 - 0 - 0 - 0 1 2022-08-26 15:50:16
125,144 Excite Bike [Light] 1,550 1 - 0 - 0 - 0 - 0 1 2022-08-26 15:50:14
125,144 Excite Bike [Light] 1,550 1 - 0 - 0 - 0 - 0 1 2022-08-26 15:50:11
125,144 Excite Bike [Light] 1,550 1 - 0 - 0 - 0 - 0 1 2022-08-26 15:50:09
125,144 Excite Bike [Light] 1,550 1 - 0 - 0 - 0 - 0 1 2022-08-26 15:50:07
125,144 Excite Bike [Light] 1,550 1 - 0 - 0 - 0 - 0 1 2022-08-26 15:50:05
123,161 Excite Bike [Light] 2,825 1 - 1 - 0 - 0 - 0 2 2022-08-26 15:49:45
1 Excite Bike [Light] [AAA] [FC] 49,600 32 - 0 - 0 - 0 - 0 32 2022-08-26 15:49:42
1 Excite Bike [Light] [AAA] [FC] 49,600 32 - 0 - 0 - 0 - 0 32 2022-08-26 15:49:30
1 Excite Bike [Light] [AAA] [FC] 49,600 32 - 0 - 0 - 0 - 0 32 2022-08-26 15:49:19
1 Excite Bike [Light] [AAA] [FC] 49,600 32 - 0 - 0 - 0 - 0 32 2022-08-26 15:49:08
1 Excite Bike [Light] [AAA] [FC] 49,600 32 - 0 - 0 - 0 - 0 32 2022-08-26 15:48:58
144 Radiata (The Quick Brown Fox 'UV' RMX) 828,975 534 - 1 - 0 - 0 - 0 535 2022-08-26 11:38:16
574 A Dichroic Glass Snafu 2,354,015 1,531 - 1 - 0 - 1 - 0 1,512 2022-08-26 07:01:59
3 Mdrqnxtagon [SR] 2,145,045 1,940 - 5 - 0 - 1 - 1 1,077 2022-08-26 06:58:30
335 Six Acid Strings 628,155 410 - 1 - 0 - 2 - 0 403 2022-08-26 06:56:15
186 I'm A Fucking Idiot 2,053,250 1,646 - 12 - 0 - 1 - 2 1,145 2022-08-26 06:55:17
339 Violent Arcade 1,543,270 1,007 - 10 - 0 - 1 - 1 987 2022-08-26 06:52:51
858 Gate Openerz [1.4x] 466,670 466 - 12 - 0 - 3 - 0 208 2022-08-25 13:40:55
172 Mishnu 1,058,165 683 - 3 - 0 - 1 - 0 682 2022-08-25 13:39:58
264 Mishnu 114,405 73 - 1 - 0 - 0 - 1 74 2022-08-25 13:39:03
82 Heartbreak Furry Fandom [SR] 514,160 227 - 101 - 53 - 4 - 57 361 2022-08-25 13:38:24
56 eXXXcaliborg.Error 554,810 358 - 11 - 5 - 1 - 4 355 2022-08-25 13:37:32
72 res extensa 15,170 10 - 0 - 0 - 1 - 1 10 2022-08-25 13:37:12
44 PEACE BREAKER 1,107,855 709 - 7 - 0 - 0 - 1 716 2022-08-25 13:36:49
34 F.F.R ~FINAL FRONTIER RESOLUTION~ 2,217,405 1,766 - 28 - 1 - 5 - 5 1,240 2022-08-24 09:20:13
27 PEACE BREAKER [PB] 2,361,730 2,590 - 61 - 3 - 5 - 8 922 2022-08-24 09:17:56
59 DIST SQUAD [1.2x] 479,360 483 - 18 - 0 - 4 - 0 210 2022-08-24 09:15:11
126 Excuse My Rudeness, but Could You Please RIP? (t+pazolite Remix) [1.2x] 1,177,400 1,283 - 30 - 2 - 5 - 3 465 2022-08-24 09:14:34
1,673 The Limit Does Not Exist [1.3x] 1,278,190 829 - 2 - 0 - 1 - 0 822 2022-08-24 09:13:01
1,138 The Devil Plays Dance Games [1.6x] 612,785 641 - 36 - 7 - 3 - 6 251 2022-08-24 09:11:56
602 Slashmaid [1.4x] 1,144,780 727 - 19 - 1 - 1 - 2 740 2022-08-24 09:10:43
6,521 Reality [1.4x] 925,350 586 - 17 - 1 - 2 - 3 599 2022-08-24 09:09:32
614 Galacta Knight [1.4x] 837,780 544 - 8 - 0 - 2 - 0 537 2022-08-24 09:08:43
1,008 All i wanna do is touch your powerpoints [1.4x] 1,091,005 1,363 - 43 - 0 - 11 - 3 333 2022-08-24 09:08:04
910 OTAKU SPEEDVIBE [Oni] [1.65x] 848,195 658 - 14 - 1 - 5 - 3 484 2022-08-24 09:06:15
45 CENSORED!! [1.65x] 1,254,510 1,551 - 40 - 0 - 8 - 3 393 2022-08-24 09:04:50
64 CENSORED!! [1.5x] 44,950 29 - 0 - 0 - 0 - 0 29 2022-08-24 09:03:11
63 goTe EX [SR] 385,780 493 - 18 - 4 - 8 - 3 112 2022-08-23 10:10:23
43 Angel's Ladder [1.4x] 815,285 949 - 52 - 5 - 10 - 7 282 2022-08-23 10:07:33
643 Galacta Knight [1.4x] 531,165 503 - 21 - 0 - 4 - 1 250 2022-08-23 10:05:58
2,261 All i wanna do is touch your powerpoints [1.4x] 1,195,685 1,255 - 55 - 2 - 28 - 6 499 2022-08-23 10:05:21
623 hatsu miku time [1.6x] 371,860 277 - 10 - 0 - 4 - 0 218 2022-08-23 10:03:41
2,094 Louder!! Louder!!!! Louder!!!!!! [1.6x] 339,035 288 - 28 - 1 - 10 - 1 176 2022-08-23 10:00:54
696 Naruto's Ninja Way [1.6x] 468,215 425 - 15 - 0 - 2 - 2 231 2022-08-23 10:00:25
548 Romance in the Club [1.5x] 817,015 664 - 15 - 0 - 1 - 0 448 2022-08-23 09:59:43
58 CENSORED!! [1.5x] 708,075 460 - 1 - 0 - 20 - 0 461 2022-08-23 09:55:41
361 Sakura Fubuki (Arrange Ver) [1.5x] 348,145 362 - 23 - 0 - 4 - 2 144 2022-08-23 09:54:49
1,629 Tetris [Powerglove] [1.5x] 611,305 605 - 15 - 0 - 5 - 1 276 2022-08-23 09:53:44
456 Swamp Thing [1.5x] 1,148,935 1,162 - 31 - 0 - 15 - 2 506 2022-08-23 09:52:28
107 Evanescent [1.5x] 344,480 220 - 4 - 0 - 2 - 0 223 2022-08-23 09:50:48
849 Galacta Knight [1.35x] 293,420 194 - 6 - 0 - 3 - 0 186 2022-08-20 14:59:25
326 Symphonies Of Suckness 3,100 2 - 0 - 0 - 0 - 0 2 2022-08-20 11:49:32
34 F.F.R ~FINAL FRONTIER RESOLUTION~ 1,538,100 1,213 - 7 - 1 - 3 - 5 870 2022-08-20 11:49:19
10 PEACE BREAKER [SR] 2,261,720 2,190 - 28 - 2 - 5 - 2 1,051 2022-08-20 11:47:14
18 Clockwork Dragon [SR] 2,626,865 1,767 - 17 - 0 - 2 - 2 1,651 2022-08-20 11:44:35
164 The Last Step [1.4x] 835,060 936 - 22 - 6 - 10 - 1 317 2022-08-20 11:16:42
566 Pretty Girls With Mental Disorders [1.4x] 446,805 463 - 21 - 0 - 2 - 0 187 2022-08-20 11:15:26
571 Pretty Girls With Mental Disorders [1.4x] 638,555 461 - 12 - 1 - 1 - 2 382 2022-08-20 11:14:46
6,840 PANTS [1.5x] 650,895 640 - 8 - 1 - 4 - 6 298 2022-08-20 11:14:02
8,851 PANTS [1.3x] 21,700 14 - 0 - 0 - 0 - 0 14 2022-08-20 11:12:42
1,411 All i wanna do is touch your powerpoints [1.3x] 1,055,875 1,337 - 57 - 0 - 23 - 1 312 2022-08-20 11:12:23
28 F.F.R ~FINAL FRONTIER RESOLUTION~ 1,933,145 2,170 - 32 - 1 - 7 - 2 733 2022-08-19 10:54:14
63 Neko Nadetai 979,135 679 - 7 - 0 - 4 - 0 605 2022-08-17 10:25:48
76 Neko Nadetai 98,715 63 - 5 - 0 - 1 - 0 63 2022-08-16 14:04:54
506 I'm A Fucking Idiot 341,550 221 - 1 - 1 - 1 - 1 220 2022-08-16 14:04:37
25 F.F.R ~FINAL FRONTIER RESOLUTION~ 2,015,860 1,775 - 19 - 1 - 5 - 6 1,036 2022-08-16 14:04:00
8 F.F.R ~FINAL FRONTIER RESOLUTION~ [PB] 2,259,675 2,752 - 38 - 5 - 5 - 5 737 2022-08-16 14:01:29
653 Gate Openerz [1.4x] 1,027,595 1,092 - 52 - 3 - 11 - 3 416 2022-08-16 13:58:35
21 DIST SQUAD 1,302,980 839 - 2 - 0 - 0 - 1 841 2022-08-13 17:03:10
1,635 DISCHARGE RUSH 347,340 221 - 4 - 0 - 1 - 0 225 2022-08-13 17:01:59
62 Comatose State 1,552,795 1,146 - 3 - 0 - 1 - 1 922 2022-08-13 17:00:15
808 Music -corrupted mix- 874,185 620 - 3 - 0 - 2 - 1 533 2022-08-13 16:58:25
17 F.F.R ~FINAL FRONTIER RESOLUTION~ [PB] 2,068,635 2,308 - 32 - 1 - 8 - 7 793 2022-08-13 16:56:38
22 F.F.R ~FINAL FRONTIER RESOLUTION~ 1,150,140 758 - 2 - 0 - 1 - 0 733 2022-08-13 16:54:03
10 Tanaka [PB] 1,958,490 1,716 - 0 - 0 - 1 - 0 1,015 2022-08-13 16:51:41
197 !!!Chaos Time!!! [Cut Edition] 2,438,120 1,579 - 0 - 0 - 1 - 1 1,570 2022-08-13 16:48:51
16 !!!Chaos Time!!! [Cut Edition] [PB] 2,665,000 1,756 - 2 - 0 - 1 - 2 1,699 2022-08-13 16:46:55
57 Extratone Pirates (Drunk Optimus Remix) [FC] [PB] 2,912,075 1,873 - 7 - 0 - 0 - 0 1,880 2022-08-13 16:43:40
2,629 Call me it. (500 Tortures) 418,225 269 - 1 - 0 - 0 - 0 270 2022-08-13 16:40:56
208 Shindeiru 866,350 554 - 6 - 0 - 0 - 0 560 2022-08-13 16:39:45
99 Finding Her Not 4,153,255 2,679 - 4 - 1 - 1 - 2 2,679 2022-08-13 16:38:15
398 Odd-22 1,726,380 1,437 - 6 - 0 - 2 - 0 935 2022-08-13 16:34:36
87 UR+ MusicEater LV99 275,625 177 - 1 - 0 - 0 - 0 178 2022-08-13 16:32:42
238 Six Acid Strings 1,847,270 1,190 - 4 - 0 - 1 - 1 1,192 2022-08-13 16:32:08
36 Schwerkraft 897,695 764 - 3 - 0 - 1 - 1 477 2022-08-13 16:30:09
288 Exam Cram [Oni] 1,757,130 1,132 - 2 - 0 - 0 - 1 1,134 2022-08-13 16:28:11
45 A Dichroic Glass Snafu [FC] [PB] 2,682,225 1,728 - 3 - 0 - 0 - 0 1,731 2022-08-13 16:26:23
50 Almost There [Oni] [FC] [PB] 2,978,785 1,921 - 1 - 0 - 0 - 2 1,922 2022-08-13 16:21:14
27 DIST SQUAD 408,925 263 - 1 - 0 - 0 - 0 264 2022-08-13 16:18:12
27 DIST SQUAD 492,625 317 - 1 - 0 - 0 - 0 318 2022-08-13 16:16:44
28 DIST SQUAD 9,300 6 - 0 - 0 - 0 - 0 6 2022-08-13 16:16:22
27 DIST SQUAD 553,075 356 - 1 - 0 - 0 - 0 357 2022-08-13 16:15:36
24 DIST SQUAD 1,129,790 742 - 0 - 0 - 1 - 0 722 2022-08-13 16:15:12
28 DIST SQUAD 130,200 84 - 0 - 0 - 0 - 0 84 2022-08-13 16:13:37
4 DIST SQUAD [FC] [SR] 2,423,650 1,562 - 2 - 0 - 0 - 0 1,564 2022-08-13 16:11:32
474 Wanderflux 579,600 371 - 3 - 1 - 1 - 1 375 2022-08-13 16:09:47
16 F.F.R ~FINAL FRONTIER RESOLUTION~ [PB] 1,962,595 2,306 - 21 - 0 - 8 - 0 691 2022-08-13 16:08:50
18 F.F.R ~FINAL FRONTIER RESOLUTION~ [SR] 1,064,495 1,281 - 10 - 1 - 6 - 0 359 2022-08-13 16:05:57
903 Gate Openerz [1.45x] 511,450 360 - 11 - 1 - 5 - 4 312 2022-08-13 16:01:31
963 Gate Openerz [1.45x] 461,800 293 - 6 - 0 - 0 - 0 299 2022-08-13 16:00:09
446 Pretty Girls With Mental Disorders [1.3x] 865,660 675 - 6 - 0 - 4 - 0 494 2022-08-13 15:58:01
49 Magical 8bit Tour v2 [1.3x] 1,847,835 1,651 - 12 - 1 - 5 - 1 938 2022-08-13 15:55:36
10,890 LITTLE GOD CH@NNEL [1.3x] 21,700 14 - 0 - 0 - 0 - 0 14 2022-08-13 15:52:07
1,122 Hero Reconsidering [1.3x] 429,665 446 - 37 - 0 - 9 - 1 177 2022-08-13 15:51:43
711 Love Hurts (Lonely Dance Mix) [1.3x] 846,820 823 - 4 - 0 - 3 - 0 394 2022-08-13 15:44:03
1,274 The Limit Does Not Exist [1.3x] 1,157,670 1,272 - 13 - 1 - 8 - 4 457 2022-08-13 15:42:56
1,157 Zombie Sunset [1.3x] 1,538,520 1,344 - 8 - 0 - 6 - 1 799 2022-08-13 15:41:00
242 Shattered [1.3x] 1,018,160 1,071 - 28 - 2 - 2 - 4 422 2022-08-13 15:38:56
113 hurricanic [1.3x] 1,180,885 1,143 - 17 - 4 - 2 - 2 548 2022-08-13 15:36:46
193 FAKE PROMISE [1.3x] 469,395 311 - 1 - 0 - 3 - 0 299 2022-08-13 15:35:26
84 PYROMANIA [1.3x] 1,169,495 916 - 11 - 0 - 1 - 1 663 2022-08-13 15:33:49
3,911 A Kidney Stone [1.3x] 563,345 366 - 6 - 1 - 2 - 2 361 2022-08-13 15:31:24
320 Out With Your Clique [1.3x] 485,325 309 - 5 - 0 - 0 - 0 314 2022-08-13 15:30:03
228 Once Upon a Time in Transylvania [1.3x] 1,077,835 956 - 11 - 0 - 3 - 3 550 2022-08-13 15:29:24
406 Once Upon a Time in Transylvania [1.3x] 116,250 75 - 0 - 0 - 0 - 0 75 2022-08-13 15:26:23
164 Dimension Wanderer [1.3x] 614,590 397 - 2 - 0 - 1 - 0 396 2022-08-13 15:24:32
105 Janus [1.3x] 1,617,665 1,302 - 19 - 0 - 2 - 2 897 2022-08-13 15:15:58
451 Cruel Whole (Abelcain Remix) v3 [1.3x] 395,695 254 - 7 - 0 - 3 - 0 255 2022-08-13 15:14:28
199 RAINBOWNESS [1.35x] 652,145 608 - 21 - 2 - 10 - 2 315 2022-08-13 10:48:30
118 Heterochromia Iridis v2 [1.35x] 123,345 78 - 5 - 0 - 3 - 0 80 2022-08-13 10:47:48
151 TURNDOWN [1.35x] 185,325 113 - 6 - 3 - 2 - 1 122 2022-08-13 10:47:32
867 My Half [1.35x] 1,429,230 1,004 - 6 - 0 - 2 - 0 876 2022-08-13 10:47:04
558 Exam Cram [Oni] 48,050 31 - 0 - 0 - 0 - 0 31 2022-08-12 10:50:31
77 DISCHARGE RUSH [PB] 2,918,725 1,876 - 8 - 1 - 1 - 1 1,885 2022-08-12 10:50:03
407 Hyper Weaboo Vodka Shots 1,851,640 1,205 - 2 - 0 - 2 - 2 1,189 2022-08-12 10:47:50
962 Hyper Weaboo Vodka Shots 372,090 248 - 0 - 0 - 1 - 0 236 2022-08-12 10:46:36
365 PhonDrome! [Oni] 693,870 515 - 2 - 0 - 3 - 0 411 2022-08-12 10:46:12
326 floating point (Drumcorps Remix) 692,720 451 - 0 - 0 - 1 - 1 445 2022-08-12 10:45:04
98 Radiata (The Quick Brown Fox 'UV' RMX) 2,119,310 1,366 - 6 - 0 - 2 - 1 1,367 2022-08-12 10:44:16
144 The Little Devil's Heart-Pounding Amusement Park [Oni] [PB] 3,239,965 2,314 - 14 - 1 - 2 - 1 1,964 2022-08-12 10:42:36
51 You Universe [PB] 1,494,855 1,520 - 15 - 0 - 7 - 5 657 2022-08-12 10:39:02
409 I'm A Fucking Idiot 632,305 406 - 5 - 0 - 1 - 3 408 2022-08-12 10:36:52
14,415 Reluctantly Accepting Temporary Overexhaustion 637,500 409 - 3 - 1 - 1 - 1 412 2022-08-12 10:35:59
22,760 Reluctantly Accepting Temporary Overexhaustion 68,415 59 - 1 - 0 - 1 - 0 36 2022-08-12 10:35:31
883 thinking of you [1.3x] 1,313,330 1,436 - 29 - 1 - 8 - 1 518 2022-08-12 10:33:52
84 toromi hearts 2 [1.2x] 3,033,630 2,060 - 7 - 1 - 1 - 2 1,899 2022-08-12 10:32:15
65 Tanaka [1.2x] 1,236,865 956 - 7 - 2 - 3 - 2 710 2022-08-12 10:30:15
157 Koi No Sibou Flag [1.2x] 2,101,805 1,418 - 8 - 1 - 1 - 2 1,320 2022-08-12 10:28:25
84 Call me it. (500 Tortures) [1.1x] 2,779,165 2,218 - 7 - 0 - 2 - 2 1,558 2022-08-12 10:26:23
245 looming shadow of a tree long gone [1.3x] 909,635 846 - 13 - 0 - 4 - 0 442 2022-08-12 10:23:16
129 Break [1.3x] 224,930 240 - 4 - 0 - 7 - 0 94 2022-08-12 10:22:16
833 Gate Openerz [1.4x] 513,355 500 - 9 - 0 - 10 - 1 239 2022-08-12 10:20:41
266 Gate Openerz [1.3x] 1,909,325 2,177 - 33 - 0 - 10 - 0 706 2022-08-12 10:19:55
414 Violent Arcade 694,300 443 - 7 - 1 - 1 - 1 449 2022-08-11 10:35:34
660 Violent Arcade 20,150 13 - 0 - 0 - 0 - 0 13 2022-08-11 10:34:17
11,687 Reluctantly Accepting Temporary Overexhaustion 1,044,395 689 - 5 - 0 - 3 - 0 665 2022-08-11 10:33:01
124 Reluctantly Accepting Temporary Overexhaustion 2,087,150 1,574 - 18 - 0 - 8 - 1 1,219 2022-08-11 10:30:08
128 Starflight [PB] 1,520,900 1,545 - 23 - 7 - 8 - 4 667 2022-08-11 10:27:40
131 Starflight [SR] 2,170,415 1,513 - 13 - 0 - 1 - 0 1,335 2022-08-11 10:25:47
42 res extensa [PB] 1,346,665 1,239 - 10 - 1 - 5 - 2 664 2022-08-11 10:23:26
40 eXXXcaliborg.Error 509,335 325 - 4 - 3 - 2 - 3 330 2022-08-11 10:22:20
40 Undici [SR] 3,008,440 3,265 - 57 - 1 - 16 - 4 1,202 2022-08-11 10:21:29
676 Kanon [1.4x] 1,470,095 1,078 - 17 - 0 - 8 - 0 875 2022-08-11 10:17:04
1,300 honki sentai majirenjaa -MAJI eurobeat version- [1.4x] 222,365 148 - 1 - 0 - 1 - 0 141 2022-08-11 10:15:16
356 C204 [1.5x] 552,620 399 - 16 - 0 - 7 - 3 331 2022-08-11 10:14:28
88 Don Pardo Pimpwagon [1.5x] 2,095,800 2,299 - 20 - 2 - 4 - 1 827 2022-08-11 10:13:04
723 Ringo's Tea Party [1.5x] 1,121,330 876 - 14 - 0 - 4 - 4 637 2022-08-11 10:10:15
576 Beep Beep I'm a Sheep (Tombstone Remix) [1.8x] 2,097,805 1,390 - 12 - 1 - 3 - 6 1,331 2022-08-11 10:08:59
11,487 Ievan Polkka (Rin & Len ver.) [1.8x] 342,365 320 - 13 - 0 - 7 - 2 165 2022-08-11 10:06:47
11,310 Szamar Madar [2x] 538,665 609 - 25 - 0 - 10 - 3 200 2022-08-11 10:05:23
380 Sakura Fubuki (Arrange Ver) [1.7x] 242,175 223 - 11 - 0 - 8 - 1 119 2022-08-11 10:04:15
182 Cyclone Joker [1.7x] 1,036,255 1,214 - 35 - 0 - 13 - 2 363 2022-08-11 10:02:43
1,656 Bloody Tears [1.7x] 1,256,020 1,067 - 30 - 2 - 7 - 1 663 2022-08-11 10:00:55
2,343 Gotta Catch 'Em All [1.7x] 525,610 654 - 24 - 0 - 15 - 2 164 2022-08-11 09:59:05
3,358 Gotta Catch 'Em All [1.7x] 289,145 183 - 4 - 1 - 2 - 2 188 2022-08-11 09:58:16
549 Naruto's Ninja Way [1.7x] 826,580 839 - 47 - 1 - 9 - 3 355 2022-08-11 09:57:07
2,197 POWERPUFF GABBERZ [1.8x] 441,425 403 - 42 - 1 - 9 - 2 211 2022-08-11 09:55:47
767 Alive (Pegboard Nerds Remix) [Heavy] [1.8x] 1,144,960 1,196 - 55 - 1 - 16 - 3 477 2022-08-11 09:54:22
403 to Luv me I *** for u. 802,965 520 - 1 - 0 - 1 - 0 517 2022-08-10 10:44:46
2,303 cold (Kurorak's Bootleg) 47,080 34 - 0 - 0 - 2 - 0 29 2022-08-10 10:43:46
12,313 do i smile? 6,200 4 - 0 - 0 - 0 - 0 4 2022-08-10 10:43:26
171 Mishnu 1,055,690 678 - 4 - 0 - 1 - 0 682 2022-08-10 10:43:06
202 Mishnu 506,300 325 - 2 - 0 - 0 - 0 327 2022-08-10 10:42:12
25 Mishnu [FC] [PB] 4,380,890 2,817 - 9 - 3 - 0 - 5 2,829 2022-08-10 10:40:55
61 Violent Arcade [SR] 2,311,600 2,516 - 29 - 1 - 7 - 3 922 2022-08-10 10:36:58
640 Powerflux [PB] 1,743,005 1,417 - 33 - 4 - 2 - 1 955 2022-08-10 10:34:01
44 I'm A Fucking Idiot [PB] 2,369,340 2,579 - 22 - 2 - 7 - 5 947 2022-08-10 10:32:18
32 Banana Seat Girl [1.5x] 1,136,700 1,130 - 29 - 3 - 6 - 4 509 2022-08-10 10:29:05
312 C204 [1.5x] 1,107,700 957 - 47 - 1 - 5 - 4 570 2022-08-10 10:27:51
1,464 NaiNai 69 [1.5x] 829,240 801 - 55 - 1 - 11 - 4 377 2022-08-10 10:26:34
1,571 The Simpsons [1.6x] 369,795 392 - 74 - 3 - 20 - 6 140 2022-08-10 10:25:42
160 The Last Step [1.4x] 700,520 944 - 29 - 1 - 15 - 3 178 2022-08-10 10:24:34
951 The Devil Plays Dance Games [1.4x] 1,216,725 1,109 - 75 - 2 - 6 - 5 588 2022-08-10 10:23:08
68 The Everlasting Calamity That Shifts The Time - Space Continuum On A Nanosecondal Basis [1.4x] 640,840 436 - 6 - 0 - 5 - 3 401 2022-08-10 10:21:09
138 one of none [1.4x] 56,355 51 - 7 - 0 - 2 - 0 27 2022-08-10 10:20:41
69 The Everlasting Calamity That Shifts The Time - Space Continuum On A Nanosecondal Basis [1.4x] 509,675 328 - 1 - 0 - 0 - 0 329 2022-08-10 10:19:59
127 Traveler ~Stand Aloof~ [Oni] [1.3x] 568,585 693 - 19 - 0 - 9 - 0 185 2022-08-10 10:18:56
185 Nageki no mori (Breakcore Remix) [1.35x] 467,585 540 - 28 - 1 - 7 - 0 165 2022-08-10 09:03:34
780 Inspector Gadget [Powerglove] [1.35x] 658,755 472 - 15 - 0 - 3 - 2 396 2022-08-10 09:02:35
722 honki sentai majirenjaa -MAJI eurobeat version- [1.35x] 1,340,610 1,614 - 41 - 1 - 14 - 4 446 2022-08-10 09:01:35
2,629 All i wanna do is touch your powerpoints [1.25x] 955,180 1,142 - 44 - 0 - 16 - 3 320 2022-08-10 08:58:51
61 Neko Nadetai 956,065 707 - 18 - 1 - 9 - 0 565 2022-08-09 12:00:50
324 Symphonies Of Suckness 3,100 2 - 0 - 0 - 0 - 0 2 2022-08-09 10:44:31
100 Mishnu 3,953,245 2,545 - 14 - 1 - 1 - 5 2,550 2022-08-09 10:44:14
2,732 Fireball 490,655 526 - 26 - 1 - 9 - 3 197 2022-08-09 10:41:15
43 res extensa [PB] 926,985 840 - 13 - 0 - 5 - 2 463 2022-08-09 10:40:20
30 eXXXcaliborg.Error [SR] 735,570 799 - 14 - 4 - 3 - 1 293 2022-08-09 10:39:20
151 Call me it. (500 Tortures) [1.1x] 1,933,180 2,194 - 24 - 2 - 7 - 3 722 2022-08-09 10:38:12
1,075 thinking of you [1.3x] 830,875 724 - 13 - 2 - 3 - 4 430 2022-08-09 10:35:41
209 Inferno of Fomalhaut [1.3x] 1,296,715 1,560 - 114 - 5 - 25 - 8 415 2022-08-09 10:34:26
298 The Devil Plays Dance Games [1.3x] 1,413,955 1,558 - 11 - 0 - 3 - 2 555 2022-08-09 10:32:23
373 Ah Shwe Bah [1.3x] 1,272,410 1,460 - 24 - 0 - 7 - 1 465 2022-08-09 10:30:02
344 Galaxy in Toybox [Heavy] [1.3x] 1,403,310 1,586 - 70 - 0 - 10 - 7 515 2022-08-09 10:27:45
103 Writing On The Walls (Final Sketch Remix) [1.35x] 946,075 828 - 19 - 0 - 5 - 0 487 2022-08-09 10:25:41
1,196 Ehhen Doyadosu? Tengujiman [1.35x] 375,000 311 - 20 - 0 - 5 - 0 200 2022-08-09 10:24:35
532 Pretty Girls With Mental Disorders [1.35x] 617,640 498 - 17 - 1 - 3 - 3 340 2022-08-09 10:24:08
1,056 Breakcore Ein Prosit [1.35x] 563,410 467 - 28 - 0 - 10 - 2 302 2022-08-09 10:23:16
1,801 -+ [1.35x] 352,970 344 - 23 - 1 - 5 - 3 159 2022-08-09 10:22:22
204 The Last Step [1.25x] 790,265 500 - 13 - 0 - 1 - 0 512 2022-08-09 10:21:22
999 Chik Habit [1.3x] 653,655 455 - 11 - 0 - 2 - 0 401 2022-08-07 13:15:54
859 Call me it. (500 Tortures) [1.1x] 1,488,260 1,568 - 7 - 5 - 4 - 5 625 2022-08-07 13:14:42
1,507 Serious Shit [1.15x] 660,215 514 - 3 - 0 - 1 - 0 377 2022-08-07 13:12:15
133 Nageki no mori (Breakcore Remix) [1.25x] 1,424,695 1,388 - 14 - 1 - 5 - 3 659 2022-08-07 13:11:01
274 Eternal Peace Is Nothing But An Illusion [1.3x] 2,232,930 1,603 - 19 - 3 - 3 - 9 1,347 2022-08-07 13:08:21
26 The Everlasting Calamity That Shifts The Time - Space Continuum On A Nanosecondal Basis [1.3x] 2,204,680 1,714 - 2 - 2 - 2 - 3 1,262 2022-08-07 13:04:24
122 hurricanic [1.3x] 905,650 590 - 4 - 0 - 3 - 1 581 2022-08-07 13:01:58
622 Love Hurts (Lonely Dance Mix) [1.3x] 950,570 1,211 - 29 - 1 - 11 - 5 280 2022-08-07 13:00:27
509 ANiMA [Deemo Cut] [1.3x] 1,662,250 1,483 - 20 - 4 - 10 - 1 844 2022-08-07 12:59:00
401 Inferno of Fomalhaut [1.3x] 274,140 245 - 6 - 0 - 4 - 1 139 2022-08-07 12:57:28
109 Excuse My Rudeness, but Could You Please RIP? (t+pazolite Remix) [1.2x] 1,320,740 1,502 - 14 - 0 - 7 - 2 493 2022-08-07 12:56:14
238 We Want To Run 3,092,090 2,330 - 22 - 2 - 5 - 1 1,806 2022-08-07 12:53:40
4,242 Rave 7 808,255 519 - 3 - 0 - 0 - 1 522 2022-08-07 12:48:18
986 A Dichroic Glass Snafu 1,737,325 1,122 - 3 - 0 - 18 - 1 1,125 2022-08-07 12:44:59
1,384 DISCHARGE RUSH 572,720 370 - 2 - 0 - 1 - 1 369 2022-08-07 12:40:47
1,285 DISCHARGE RUSH 678,240 440 - 2 - 0 - 1 - 0 436 2022-08-07 12:40:08
1,123 DISCHARGE RUSH 894,540 586 - 2 - 0 - 1 - 0 572 2022-08-07 12:39:33
33 Real Ultimate Power 1,087,055 708 - 1 - 0 - 2 - 0 698 2022-08-07 12:37:59
35 Real Ultimate Power 857,565 551 - 3 - 0 - 1 - 0 554 2022-08-07 12:35:59
683 Powerflux [PB] 1,569,830 1,253 - 6 - 0 - 3 - 2 880 2022-08-07 12:34:45
152 Mishnu 1,370,650 1,302 - 3 - 1 - 1 - 1 654 2022-08-07 12:32:58
120 Reluctantly Accepting Temporary Overexhaustion [PB] 1,804,710 1,575 - 17 - 1 - 7 - 5 936 2022-08-07 12:30:47
357 Odd-22 2,456,350 1,588 - 3 - 1 - 3 - 0 1,583 2022-08-07 12:28:37
864 Staple on Smile 1,362,295 874 - 7 - 0 - 1 - 1 880 2022-08-07 12:26:20
364 J-CORE SLi//CER Technique 390,440 264 - 2 - 0 - 1 - 0 245 2022-08-07 12:24:20
2,838 Heterochromia Iridis 311,545 203 - 3 - 0 - 3 - 0 200 2022-08-07 12:23:29
733 Heterochromia Iridis 2,135,905 1,494 - 3 - 0 - 2 - 0 1,314 2022-08-07 12:22:53
255 That's Gonna Be [SR] 670,950 592 - 14 - 2 - 5 - 3 343 2022-08-07 12:20:53
53 Neko Nadetai 1,320,560 1,195 - 13 - 1 - 4 - 4 661 2022-08-07 12:19:52
36 Schwerkraft 262,065 182 - 1 - 0 - 1 - 0 162 2022-08-07 12:18:27
197 VIS::CRACKED 3,570,935 2,304 - 5 - 0 - 2 - 1 2,303 2022-08-07 12:16:37
35 The Disappearance of Hatsune Miku -Theatrical Version- [FC] [PB] 3,037,175 1,957 - 3 - 0 - 0 - 0 1,960 2022-08-07 12:12:08
238 Six Acid Strings 1,648,730 1,193 - 2 - 0 - 3 - 2 993 2022-08-07 12:09:38
22 PhonDrome! [Oni] [PB] 2,778,005 1,800 - 5 - 0 - 1 - 3 1,787 2022-08-07 12:07:27
24 Radiata (The Quick Brown Fox 'UV' RMX) [PB] 2,760,450 2,781 - 10 - 2 - 6 - 5 1,230 2022-08-07 12:04:42
134 Exam Cram [Oni] 2,324,385 1,504 - 3 - 0 - 2 - 1 1,497 2022-08-07 11:35:43
225 Wanderflux 1,867,100 1,959 - 18 - 0 - 4 - 3 786 2022-08-07 11:33:37
35 Real Ultimate Power 393,280 258 - 0 - 0 - 2 - 0 252 2022-08-07 11:31:43
30 Real Ultimate Power 1,194,610 834 - 2 - 0 - 2 - 1 736 2022-08-07 11:30:14
74 SHINE!! [1.3x] 637,920 445 - 4 - 0 - 3 - 0 393 2022-08-07 11:29:05
1,009 thinking of you [1.3x] 1,038,750 859 - 34 - 0 - 13 - 1 561 2022-08-07 11:28:23
42 Tanaka [1.2x] 1,712,360 1,461 - 17 - 1 - 6 - 3 906 2022-08-07 11:26:51
99 toromi hearts 2 [1.2x] 990,075 934 - 7 - 0 - 5 - 0 476 2022-08-07 11:24:59
71 Nageki no mori (Breakcore Remix) [1.2x] 1,717,525 1,938 - 15 - 0 - 8 - 1 650 2022-08-07 11:23:25
573 Gate Openerz [1.3x] 1,476,585 1,441 - 15 - 0 - 13 - 3 684 2022-08-07 11:20:54
120 Traveler ~Stand Aloof~ [Oni] [1.25x] 786,720 728 - 6 - 0 - 1 - 1 385 2022-08-07 11:19:14
51 res extensa [SR] 342,365 286 - 5 - 0 - 1 - 0 184 2022-08-07 11:17:05
692 Hello (BPM) 2021 [SR] 312,645 294 - 2 - 1 - 2 - 2 151 2022-08-07 11:16:46
46 Tanaka 1,262,625 814 - 1 - 0 - 1 - 2 815 2022-08-07 11:15:45
46 Tanaka 1,479,005 956 - 3 - 0 - 2 - 0 953 2022-08-07 11:14:21
51 Tanaka [1.3x] 47,805 33 - 1 - 0 - 2 - 0 30 2022-08-07 11:09:44
724 A Dichroic Glass Snafu 2,131,900 1,373 - 4 - 0 - 1 - 2 1,376 2022-08-07 10:07:33
970 A Dichroic Glass Snafu 1,757,600 1,129 - 6 - 0 - 0 - 0 1,135 2022-08-07 10:05:36
101 sniffing stardust on the dancefloor [PB] 1,424,325 1,374 - 13 - 0 - 3 - 1 666 2022-08-06 15:37:42
68 Disregard [SR] 1,080,855 1,002 - 5 - 0 - 2 - 0 529 2022-08-06 15:35:05
46 Fotvaerk [PB] 1,515,425 1,264 - 14 - 1 - 2 - 3 817 2022-08-06 15:32:47
166 Firstaidvision 1,238,045 987 - 15 - 0 - 3 - 0 692 2022-08-06 15:30:21
57 Nageki no mori (Breakcore Remix) [PB] 2,786,385 1,949 - 10 - 1 - 1 - 3 1,712 2022-08-06 15:27:05
29 Break [FC] [SR] 2,129,165 1,373 - 0 - 1 - 0 - 2 1,374 2022-08-06 15:23:16
1 Head Banger [AAA] [FC] [PB] 1,904,950 1,229 - 0 - 0 - 0 - 0 1,229 2022-08-06 15:21:12
54 Cruel Whole (Abelcain Remix) v3 [SR] 810,865 754 - 9 - 0 - 1 - 0 394 2022-08-06 15:19:15
50 Lumpiang Shanghai Deluxe [SR] 1,009,420 1,125 - 1 - 1 - 2 - 2 391 2022-08-06 15:16:15
77 Autoprocess [FC] [PB] 1,363,175 877 - 3 - 0 - 0 - 0 880 2022-08-06 15:13:54
1 Bit Blue [AAA] [FC] [PB] 1,114,450 719 - 0 - 0 - 0 - 0 719 2022-08-06 15:11:52
1 Excite Bike [Light] [AAA] [FC] 49,600 32 - 0 - 0 - 0 - 0 32 2022-08-06 15:08:33
56 Breakbeat Acid [FC] [PB] 1,646,805 1,060 - 3 - 0 - 0 - 1 1,063 2022-08-06 15:07:12
1 WE EAT AT FIVE FIVE FIVE (guys) [AAA] [FC] [PB] 1,700,350 1,097 - 0 - 0 - 0 - 0 1,097 2022-08-06 15:03:35
918 DISCHARGE RUSH 1,426,325 927 - 3 - 0 - 1 - 2 916 2022-08-06 15:00:10
365 Happy Arnold=) 824,865 557 - 3 - 0 - 1 - 0 518 2022-08-06 14:57:42
1,028 grind4 336,075 216 - 1 - 0 - 0 - 0 217 2022-08-06 14:56:12
79 Boxel Adventure 37,715 25 - 1 - 0 - 1 - 0 24 2022-08-06 14:54:47
2,155 A Dichroic Glass Snafu 1,082,515 701 - 1 - 0 - 1 - 0 697 2022-08-06 14:54:24
4,735 A Dichroic Glass Snafu 274,075 176 - 1 - 0 - 0 - 0 177 2022-08-06 14:53:33
669 Make the Fire Burn 1,562,450 1,015 - 2 - 0 - 1 - 2 1,004 2022-08-06 14:51:54
33 Gamma Stop Sending Me High Quality Rips [SR] 3,466,235 3,660 - 29 - 2 - 9 - 3 1,448 2022-08-06 14:49:18
38 Wanderflux [PB] 2,809,275 3,018 - 17 - 0 - 4 - 3 1,146 2022-08-06 14:43:57
45 Wanderflux [PB] 2,611,755 3,018 - 12 - 1 - 8 - 1 951 2022-08-06 14:40:31
58 You Universe [PB] 1,494,225 1,514 - 21 - 0 - 7 - 4 658 2022-08-06 14:36:56
262 I'm A Fucking Idiot [PB] 1,123,695 1,134 - 7 - 2 - 6 - 9 500 2022-08-06 14:34:42
70 Neko Nadetai 109,065 100 - 5 - 0 - 1 - 0 53 2022-08-06 14:33:07
15 Neko Nadetai [PB] 2,043,420 1,898 - 16 - 0 - 6 - 1 997 2022-08-06 14:32:00
24 Schwerkraft 1,968,515 1,766 - 9 - 0 - 4 - 1 996 2022-08-06 14:28:43
31 Schwerkraft 782,660 557 - 2 - 0 - 4 - 0 477 2022-08-06 14:26:50
127 Adcar 1,772,375 1,141 - 3 - 0 - 0 - 0 1,144 2022-08-06 14:25:56
2,305 System Doctor 388,500 249 - 2 - 0 - 0 - 0 251 2022-08-06 14:24:26
305 Exam Cram [Oni] 1,618,905 1,042 - 3 - 0 - 0 - 1 1,045 2022-08-06 14:23:13
52 Comatose State 2,440,900 1,577 - 3 - 1 - 1 - 1 1,573 2022-08-06 14:20:54
3,953 Heterochromia Iridis 16,775 10 - 1 - 0 - 0 - 0 11 2022-08-06 14:18:49
668 Heterochromia Iridis 1,648,810 1,578 - 2 - 0 - 2 - 1 781 2022-08-06 14:18:44
58 Heterochromia Iridis [FC] [PB] 3,069,155 1,976 - 5 - 0 - 0 - 1 1,981 2022-08-06 14:16:52
39 Music -corrupted mix- [PB] 2,295,725 1,695 - 3 - 0 - 1 - 2 1,363 2022-08-06 14:13:48
71 Neko Nadetai 112,810 68 - 5 - 1 - 0 - 1 74 2022-08-06 14:10:31
16 Neko Nadetai [PB] 1,683,850 1,896 - 18 - 0 - 6 - 2 638 2022-08-06 14:08:03
1,453 Staple on Smile 246,605 155 - 5 - 0 - 0 - 1 160 2022-08-06 14:05:43
6,683 The Disappearance of Hatsune Miku -Theatrical Version- 32,550 21 - 0 - 0 - 0 - 0 21 2022-08-06 14:04:19
51 The Disappearance of Hatsune Miku -Theatrical Version- [FC] [PB] 3,036,625 1,955 - 5 - 0 - 0 - 0 1,960 2022-08-06 14:03:24
848 The Disappearance of Hatsune Miku -Theatrical Version- 2,484,585 1,599 - 4 - 1 - 0 - 1 1,604 2022-08-06 14:00:51
25 Mishnu 2,898,130 2,818 - 8 - 0 - 3 - 2 1,347 2022-08-06 13:56:49
25 Mishnu [PB] 3,727,530 2,816 - 11 - 1 - 1 - 2 2,176 2022-08-06 13:52:27
533 Odd-22 1,111,045 741 - 3 - 0 - 1 - 1 703 2022-08-06 13:47:32
526 Odd-22 1,204,140 777 - 4 - 0 - 1 - 0 776 2022-08-06 13:46:31
42 Odd-22 3,163,095 2,251 - 5 - 0 - 1 - 1 1,924 2022-08-06 13:45:19
21 Real Ultimate Power 1,226,130 883 - 4 - 0 - 2 - 0 740 2022-08-06 13:42:28
21 Real Ultimate Power 1,469,895 947 - 5 - 0 - 1 - 1 948 2022-08-06 13:41:17
16 Real Ultimate Power 2,366,150 1,726 - 8 - 0 - 1 - 2 1,415 2022-08-06 13:39:53
19 Real Ultimate Power 1,529,850 1,286 - 4 - 2 - 2 - 2 822 2022-08-06 13:37:31
19 Real Ultimate Power 1,546,170 1,200 - 4 - 0 - 3 - 0 886 2022-08-06 13:35:33
18 Real Ultimate Power 1,366,675 1,217 - 1 - 0 - 3 - 1 698 2022-08-06 13:29:59
22 Real Ultimate Power 879,465 570 - 1 - 0 - 1 - 0 566 2022-08-06 13:28:28
21 Real Ultimate Power 1,037,590 717 - 2 - 0 - 1 - 0 643 2022-08-06 13:26:27
18 Real Ultimate Power 2,007,360 1,287 - 9 - 1 - 0 - 1 1,297 2022-08-06 13:23:12
1 Real Ultimate Power [PB] 2,179,610 2,052 - 6 - 0 - 2 - 1 1,050 2022-08-06 13:21:03
22 Real Ultimate Power 7,750 5 - 0 - 0 - 0 - 0 5 2022-08-06 13:17:33
2 Real Ultimate Power 2,329,075 2,046 - 10 - 1 - 3 - 5 1,202 2022-08-06 13:17:00
1 Real Ultimate Power [PB] 1,772,670 2,050 - 5 - 1 - 4 - 1 645 2022-08-06 13:13:55
4 Real Ultimate Power 2,102,520 2,036 - 18 - 2 - 4 - 5 979 2022-08-06 13:11:11
21 Real Ultimate Power 976,010 632 - 6 - 2 - 1 - 2 627 2022-08-06 13:07:52
1 Real Ultimate Power [PB] 2,374,905 2,049 - 5 - 4 - 2 - 1 1,247 2022-08-06 13:06:49
22 Real Ultimate Power 43,400 28 - 0 - 0 - 0 - 0 28 2022-08-06 13:04:40
1 Real Ultimate Power [PB] 1,755,845 2,047 - 8 - 1 - 4 - 1 629 2022-08-06 13:03:08
9 Real Ultimate Power 1,672,605 1,900 - 18 - 1 - 14 - 3 627 2022-08-06 13:00:30
4 Real Ultimate Power 1,820,595 2,041 - 9 - 2 - 8 - 3 698 2022-08-06 12:58:29
21 Real Ultimate Power 4,340 3 - 0 - 0 - 1 - 0 3 2022-08-06 12:56:17
2 Real Ultimate Power [PB] 2,560,290 2,040 - 18 - 0 - 2 - 2 1,434 2022-08-06 12:54:59
21 Real Ultimate Power 51,150 33 - 0 - 0 - 0 - 0 33 2022-08-06 12:51:55
21 Real Ultimate Power 17,050 11 - 0 - 0 - 0 - 0 11 2022-08-06 12:51:03
4 Real Ultimate Power [SR] 2,324,595 2,035 - 19 - 0 - 6 - 1 1,202 2022-08-06 12:50:01
29 Tanaka [1.2x] 1,245,245 833 - 11 - 0 - 3 - 0 785 2022-08-06 12:46:28
900 Love Hurts (Lonely Dance Mix) [1.35x] 372,615 332 - 11 - 0 - 3 - 4 188 2022-08-06 12:45:13
592 Title (Double Dragon) [1.35x] 1,690,735 1,331 - 7 - 0 - 20 - 2 963 2022-08-06 12:42:54
1,192 My Fxxkin Desire For You [1.35x] 1,187,240 900 - 2 - 0 - 1 - 0 692 2022-08-06 12:37:22
1,512 My Fxxkin Desire For You [1.35x] 426,230 275 - 0 - 0 - 0 - 1 275 2022-08-06 12:35:34
1,598 My Fxxkin Desire For You [1.25x] 244,900 158 - 0 - 0 - 0 - 0 158 2022-08-06 12:35:00
566 Gate Openerz [1.25x] 1,374,250 1,476 - 19 - 1 - 9 - 2 560 2022-08-06 12:34:15
648 Gate Openerz [1.3x] 995,455 1,115 - 26 - 1 - 16 - 2 380 2022-08-06 12:32:40
261 Galacta Knight [1.3x] 1,536,275 1,492 - 41 - 4 - 12 - 5 708 2022-08-06 12:30:40
540 Galacta Knight [1.3x] 725,985 723 - 14 - 3 - 2 - 3 325 2022-08-06 12:29:07
301 Eternal Peace Is Nothing But An Illusion [1.3x] 1,808,225 1,510 - 19 - 0 - 8 - 1 975 2022-08-06 12:27:23
874 Music -corrupted mix- 812,735 539 - 7 - 0 - 2 - 1 515 2022-08-06 10:30:00
728 Heterochromia Iridis 2,322,475 1,497 - 9 - 0 - 1 - 2 1,497 2022-08-06 10:29:13
2,437 Heterochromia Iridis 527,515 340 - 3 - 0 - 1 - 0 340 2022-08-06 10:27:37
1,602 Heterochromia Iridis 843,705 670 - 3 - 0 - 2 - 0 475 2022-08-06 10:27:09
4,422 Rave 7 672,690 439 - 2 - 0 - 1 - 0 431 2022-08-06 09:49:32
6,680 Almost There [Oni] 906,480 584 - 6 - 0 - 1 - 3 584 2022-08-06 09:48:26
896 Winter Wind Etude 3,179,780 2,052 - 2 - 0 - 1 - 3 2,051 2022-08-06 09:47:18
1,662 Winter Wind Etude 2,404,500 1,548 - 4 - 0 - 0 - 0 1,552 2022-08-06 09:44:35
79 Boxel Adventure 112,980 76 - 2 - 0 - 1 - 3 71 2022-08-06 09:42:28
78 Boxel Adventure 271,940 234 - 2 - 0 - 1 - 0 143 2022-08-06 09:42:09
68 Star of the COME ON!! 1,975,425 1,272 - 3 - 0 - 0 - 0 1,275 2022-08-06 09:41:40
110 Excuse My Rudeness, but Could You Please RIP? (t+pazolite Remix) 2,249,115 1,452 - 3 - 0 - 1 - 0 1,450 2022-08-06 09:39:44
34 Excuse My Rudeness, but Could You Please RIP? (t+pazolite Remix) [FC] [PB] 4,066,100 2,620 - 4 - 0 - 0 - 0 2,624 2022-08-06 09:37:45
14,200 Reluctantly Accepting Temporary Overexhaustion 673,315 437 - 1 - 0 - 1 - 0 433 2022-08-06 09:27:27
152 Symphonies Of Suckness 2,493,615 1,861 - 7 - 0 - 6 - 0 1,470 2022-08-06 09:24:47
324 Symphonies Of Suckness 3,100 2 - 0 - 0 - 0 - 0 2 2022-08-06 09:21:58
5 Tanaka [FC] [SR] 2,660,250 1,713 - 4 - 0 - 0 - 0 1,717 2022-08-06 09:19:49
158 Hopeful BlueSky [1.35x] 1,177,240 760 - 2 - 0 - 1 - 0 759 2022-08-06 09:17:20
327 Hope 4 Hopeful [1.5x] 912,750 708 - 24 - 2 - 4 - 6 518 2022-08-06 09:16:07
20 Hopscotch [1.7x] 1,257,065 1,333 - 20 - 1 - 2 - 1 519 2022-08-06 09:14:51
27 Hopscotch [1.7x] 74,400 52 - 0 - 0 - 20 - 0 52 2022-08-06 09:13:31
26 Hate Everyone [1.5x] 705,785 979 - 21 - 0 - 14 - 5 166 2022-08-06 09:13:02
20 The Everlasting Calamity That Shifts The Time - Space Continuum On A Nanosecondal Basis [1.25x] 1,726,880 1,690 - 25 - 3 - 2 - 2 791 2022-08-06 09:11:00
26 The Everlasting Calamity That Shifts The Time - Space Continuum On A Nanosecondal Basis [1.25x] 139,500 90 - 0 - 0 - 0 - 0 90 2022-08-06 09:08:58
590 Alive (Pegboard Nerds Remix) [Heavy] [1.6x] 1,312,510 1,222 - 36 - 2 - 8 - 6 633 2022-08-06 09:08:19
2,255 Fushigi Usagi Milk Tei 653,460 520 - 4 - 0 - 2 - 1 367 2022-08-03 09:39:29
919 cold (Kurorak's Bootleg) 1,416,525 912 - 8 - 1 - 1 - 1 913 2022-08-03 09:38:36
51 A Dichroic Glass Snafu [PB] 2,396,640 1,728 - 2 - 0 - 1 - 0 1,446 2022-08-03 09:34:52
54 Neko Nadetai 942,520 803 - 10 - 0 - 6 - 1 500 2022-08-03 09:31:47
33 Revenge (ReeK's "Dude, What's A Genre?" Remix) [SR] 3,496,595 2,907 - 12 - 1 - 5 - 3 1,896 2022-08-03 09:30:45
691 Staple on Smile 1,477,720 1,181 - 4 - 0 - 3 - 0 828 2022-08-03 09:26:04
22 Schwerkraft 1,831,870 1,460 - 21 - 3 - 3 - 7 1,024 2022-08-03 09:23:08
28 VIS::CRACKED [FC] [PB] 3,950,575 2,543 - 7 - 0 - 0 - 0 2,550 2022-08-03 09:20:52
40 The Bridgeport Run [PB] 3,088,715 2,679 - 13 - 0 - 1 - 0 1,612 2022-08-03 09:17:34
58 Comatose State 3,100 2 - 0 - 0 - 0 - 0 2 2022-08-03 09:13:48
2,536 System Doctor 217,340 143 - 0 - 0 - 1 - 0 139 2022-07-31 11:44:11
1,753 A Dichroic Glass Snafu 1,287,465 829 - 3 - 0 - 1 - 0 831 2022-07-31 10:42:57
149 The Bird's Snapshot Lifespan 2,217,385 1,530 - 8 - 1 - 1 - 3 1,374 2022-07-31 10:41:52
229 Break The Silence [PB] 1,610,870 1,041 - 6 - 0 - 1 - 1 1,037 2022-07-31 10:39:29
302 endleSSStation 1,430,620 1,047 - 4 - 0 - 1 - 1 854 2022-07-31 10:38:04
239 endleSSStation [PB] 2,695,470 1,735 - 10 - 0 - 21 - 1 1,745 2022-07-31 10:35:56
464 VIS::CRACKED 156,090 148 - 0 - 0 - 1 - 0 75 2022-07-31 10:32:55
9 Schwerkraft [SR] 1,914,090 2,165 - 20 - 0 - 10 - 3 721 2022-07-31 10:32:06
777 The Wises Were Wrong [SR] 31,000 20 - 0 - 0 - 0 - 0 20 2022-07-30 11:22:50
3,086 A Dichroic Glass Snafu 769,690 500 - 0 - 0 - 1 - 0 495 2022-07-30 11:19:57
228 Nisemono [Cut] 4,340 6 - 0 - 0 - 16 - 0 6 2022-07-30 11:12:39
73 Boxel Adventure 566,200 362 - 4 - 0 - 0 - 0 366 2022-07-30 11:04:15
80 The Disappearance of Hatsune Miku -Theatrical Version- [FC] 3,034,405 1,947 - 13 - 0 - 0 - 1 1,960 2022-07-30 10:53:54
53 The Disappearance of Hatsune Miku -Theatrical Version- [PB] 2,186,315 1,956 - 3 - 0 - 1 - 0 1,110 2022-07-30 10:51:33
310 Exam Cram [Oni] 1,585,495 1,024 - 2 - 1 - 1 - 0 1,022 2022-07-30 10:46:36
135 The Bridgeport Run [SR] 1,821,880 1,348 - 4 - 0 - 2 - 0 1,080 2022-07-30 10:44:25
21 Neko Nadetai 2,075,360 1,873 - 36 - 8 - 3 - 10 1,036 2022-07-30 10:41:16
18 Neko Nadetai [SR] 1,647,945 1,886 - 26 - 3 - 5 - 6 605 2022-07-30 10:38:38
5,041 Reluctantly Accepting Temporary Overexhaustion [PB] 1,111,045 940 - 23 - 0 - 4 - 2 589 2022-07-30 10:36:02
26 Comatose State 806,650 523 - 1 - 1 - 1 - 1 519 2022-07-30 10:34:25
5 Comatose State [FC] [PB] 2,743,615 1,766 - 5 - 0 - 0 - 3 1,771 2022-07-30 10:32:50
24 Comatose State 1,660,835 1,070 - 6 - 1 - 1 - 3 1,071 2022-07-30 10:30:05
25 Comatose State 1,277,865 826 - 3 - 2 - 1 - 3 823 2022-07-30 10:28:22
25 Comatose State 1,238,745 994 - 5 - 0 - 1 - 1 691 2022-07-30 10:27:09
25 Comatose State 1,170,905 758 - 5 - 0 - 1 - 3 753 2022-07-30 10:25:22
22 Comatose State 2,395,830 1,544 - 7 - 1 - 1 - 2 1,545 2022-07-30 10:23:27
9 Comatose State [PB] 2,389,910 1,762 - 8 - 0 - 1 - 4 1,419 2022-07-30 10:20:36
26 Comatose State [1.1x] 3,100 2 - 0 - 0 - 0 - 0 2 2022-07-30 10:16:29
21 Comatose State [SR] 624,590 407 - 0 - 0 - 20 - 3 407 2022-07-30 09:08:50
23 PUPA [PB] 1,883,395 1,219 - 1 - 0 - 1 - 1 1,213 2022-07-30 09:07:06
24 PUPA [SR] 796,690 519 - 2 - 0 - 1 - 0 511 2022-07-30 09:04:52
19 TURNDOWN [FC] [SR] 2,532,425 1,633 - 1 - 0 - 0 - 0 1,634 2022-07-30 08:56:43
720 sniffing stardust on the dancefloor 356,225 229 - 1 - 0 - 0 - 0 230 2022-07-30 08:52:32
106 one of none [SR] 576,050 370 - 2 - 0 - 0 - 0 372 2022-07-30 08:51:33
1 Excite Bike [Light] [AAA] [FC] 49,600 32 - 0 - 0 - 0 - 0 32 2022-07-30 08:50:10
98 Janus [SR] 1,844,790 1,202 - 0 - 0 - 1 - 0 1,184 2022-07-30 08:49:35
826 Staple on Smile 1,205,990 931 - 8 - 0 - 4 - 1 693 2022-07-29 17:26:11
79 The Disappearance of Hatsune Miku -Theatrical Version- [PB] 2,721,370 1,949 - 10 - 0 - 1 - 1 1,647 2022-07-29 17:24:47
239 Six Acid Strings 1,411,580 1,160 - 2 - 0 - 3 - 2 774 2022-07-29 17:22:21
293 J-CORE SLi//CER Technique 661,710 455 - 4 - 0 - 2 - 1 411 2022-07-29 17:20:51
772 Music -corrupted mix- 885,020 667 - 4 - 0 - 3 - 0 518 2022-07-29 17:20:03
541 Music -corrupted mix- 1,068,900 1,011 - 2 - 0 - 2 - 4 513 2022-07-29 17:18:59
957 Music -corrupted mix- 670,875 432 - 1 - 0 - 0 - 0 433 2022-07-29 17:17:43
542 Hyper Weaboo Vodka Shots 1,388,060 901 - 3 - 1 - 1 - 3 892 2022-07-29 17:16:46
307 floating point (Drumcorps Remix) 802,230 511 - 8 - 0 - 0 - 1 519 2022-07-29 17:15:27
1,281 DISCHARGE RUSH 685,550 439 - 4 - 0 - 0 - 0 443 2022-07-29 17:14:28
37 Magical 8bit Tour [PB] 2,186,195 1,875 - 1 - 0 - 1 - 1 1,155 2022-07-29 17:12:47
504 Jamais Vu [PB] 1,819,965 1,704 - 11 - 0 - 4 - 1 881 2022-07-29 17:09:39
3,442 A Dichroic Glass Snafu 645,800 415 - 2 - 0 - 0 - 0 417 2022-07-29 17:07:23
62 A Dichroic Glass Snafu [PB] 2,580,400 1,728 - 1 - 1 - 1 - 1 1,630 2022-07-29 17:06:38
103 brute force [PB] 1,939,530 1,411 - 5 - 1 - 3 - 1 1,163 2022-07-29 17:02:30
2,178 You Universe 121,865 77 - 3 - 0 - 1 - 0 79 2022-07-29 17:01:13
120 Radiata (The Quick Brown Fox 'UV' RMX) 1,030,085 830 - 3 - 2 - 1 - 2 573 2022-07-29 17:00:33
46 Make the Fire Burn [PB] 3,275,780 2,662 - 6 - 0 - 3 - 2 1,811 2022-07-29 16:58:43
40 Odd-22 [FC] [PB] 3,496,405 2,250 - 7 - 0 - 0 - 1 2,257 2022-07-29 16:52:47
529 Odd-22 1,086,755 741 - 3 - 0 - 2 - 0 679 2022-07-29 16:50:18
225 Odd-22 2,892,690 2,042 - 4 - 0 - 21 - 0 1,775 2022-07-29 16:49:08
395 Odd-22 2,244,170 1,445 - 10 - 0 - 1 - 1 1,447 2022-07-29 16:46:46
499 Odd-22 1,095,565 1,029 - 7 - 0 - 1 - 0 528 2022-07-29 16:44:58
156 Adcar 711,245 465 - 3 - 0 - 1 - 1 455 2022-07-29 16:43:24
38 VIS::CRACKED [FC] [PB] 3,949,985 2,541 - 9 - 0 - 0 - 2 2,550 2022-07-29 16:41:37
4,291 The Disappearance of Hatsune Miku -Theatrical Version- 425,080 273 - 2 - 0 - 2 - 0 275 2022-07-29 16:38:25
3,763 The Disappearance of Hatsune Miku -Theatrical Version- 411,665 373 - 3 - 0 - 1 - 0 206 2022-07-29 16:37:53
6,984 The Disappearance of Hatsune Miku -Theatrical Version- 9,300 6 - 0 - 0 - 0 - 0 6 2022-07-29 16:37:12
2,845 The Disappearance of Hatsune Miku -Theatrical Version- 1,249,900 799 - 5 - 5 - 0 - 10 809 2022-07-29 16:37:07
358 PhonDrome! [Oni] 795,780 513 - 7 - 1 - 1 - 2 512 2022-07-29 16:35:52
34 PhonDrome! [Oni] [FC] [PB] 2,795,920 1,794 - 12 - 0 - 0 - 4 1,806 2022-07-29 16:34:11
840 Music -corrupted mix- 808,055 568 - 11 - 0 - 1 - 3 493 2022-07-29 16:31:38
1,873 Heterochromia Iridis 738,900 477 - 3 - 1 - 1 - 1 476 2022-07-29 16:30:46
749 Heterochromia Iridis 2,158,405 1,484 - 3 - 0 - 2 - 0 1,342 2022-07-29 16:30:12
99 Finding Her Not 2,891,125 2,682 - 6 - 1 - 2 - 3 1,415 2022-07-29 16:28:23
30 Finding Her Not [PB] 3,781,735 3,028 - 6 - 1 - 1 - 3 2,115 2022-07-29 16:25:11
68 do i smile? [FC] [PB] 3,270,825 2,103 - 8 - 1 - 0 - 4 2,112 2022-07-29 16:21:30
2,304 cold (Kurorak's Bootleg) 46,805 33 - 1 - 0 - 2 - 0 29 2022-07-29 16:18:18
36 to Luv me I *** for u. [PB] 3,723,045 2,538 - 8 - 5 - 1 - 1 2,325 2022-07-29 16:17:28
406 oppIrish (GYPSYCOREremix) [PB] 1,407,265 1,240 - 7 - 0 - 2 - 2 724 2022-07-29 16:13:52
2,408 Rave 7 1,481,210 954 - 2 - 0 - 0 - 2 956 2022-07-29 16:12:06
3,962 Rave 7 1,000,215 643 - 2 - 1 - 0 - 2 646 2022-07-29 16:10:45
355 Exam Cram [Oni] 1,035,105 667 - 1 - 0 - 0 - 1 668 2022-07-29 16:09:25
213 Exam Cram [Oni] 2,045,660 1,315 - 5 - 1 - 0 - 1 1,321 2022-07-29 16:08:29
349 Exam Cram [Oni] 1,180,275 759 - 3 - 0 - 0 - 0 762 2022-07-29 16:06:52
662 Epileptic Crisis [Oni] 1,901,340 1,217 - 12 - 0 - 1 - 0 1,229 2022-07-29 16:05:31
72 Boxel Adventure 896,075 574 - 5 - 0 - 0 - 0 579 2022-07-29 16:03:50
11,268 Almost There [Oni] 356,565 232 - 1 - 0 - 1 - 0 229 2022-07-29 16:02:25
7,213 Almost There [Oni] 699,760 520 - 0 - 0 - 4 - 0 415 2022-07-29 16:01:52
94 Almost There [Oni] [PB] 2,397,830 1,918 - 2 - 0 - 2 - 0 1,343 2022-07-29 16:00:36
6,417 Almost There [Oni] 861,240 621 - 1 - 1 - 2 - 1 520 2022-07-29 15:57:49
6,959 Almost There [Oni] 717,565 552 - 2 - 1 - 2 - 1 414 2022-07-29 15:56:52
108 Almost There [Oni] [PB] 2,383,330 1,915 - 5 - 1 - 1 - 2 1,329 2022-07-29 15:55:50
470 Winter Wind Etude 3,325,715 2,324 - 3 - 0 - 1 - 0 2,047 2022-07-29 15:52:38
30 Call me it. (500 Tortures) [FC] [PB] 3,451,300 2,225 - 2 - 0 - 0 - 0 2,227 2022-07-29 15:48:42
1,541 A Quick Death 1,865,890 1,202 - 4 - 0 - 1 - 0 1,204 2022-07-29 15:45:42
524 LOSHAXI 299,840 192 - 2 - 0 - 1 - 0 194 2022-07-29 15:43:47
546 LOSHAXI 143,875 92 - 1 - 0 - 0 - 0 93 2022-07-29 15:43:23
920 You Time 903,840 580 - 3 - 1 - 0 - 2 584 2022-07-29 15:42:24
48 Take [PB] 1,881,555 1,704 - 7 - 0 - 5 - 1 944 2022-07-29 15:40:58
558 thinking of you 3,274,765 2,135 - 3 - 0 - 1 - 0 2,100 2022-07-29 15:38:13
152 Paradoxical time leap trial 666,225 429 - 1 - 0 - 0 - 0 430 2022-07-29 15:35:56
99 FACTORY_RESET 1,133,075 901 - 3 - 2 - 1 - 5 637 2022-07-29 15:34:16
1,077 grind4 254,715 165 - 1 - 0 - 1 - 0 164 2022-07-29 15:30:50
59 grind4 [FC] [PB] 1,049,330 677 - 0 - 0 - 0 - 1 677 2022-07-29 15:30:21
1 Eternal Peace Is Nothing But An Illusion [AAA] [FC] [PB] 2,907,800 1,876 - 0 - 0 - 0 - 0 1,876 2022-07-29 15:26:11
112 Tribe Attacker v2 [SR] 26,350 17 - 0 - 0 - 0 - 0 17 2022-07-29 15:23:25
40 Eternal Peace Is Nothing But An Illusion [FC] 2,906,150 1,870 - 6 - 0 - 0 - 0 1,876 2022-07-29 15:22:57
201 Shindeiru 865,750 560 - 4 - 0 - 1 - 2 557 2022-07-29 10:23:48
267 The Little Devil's Heart-Pounding Amusement Park [Oni] [PB] 1,386,855 983 - 3 - 0 - 2 - 0 846 2022-07-29 10:22:35
1,283 Staple on Smile 439,400 287 - 3 - 1 - 1 - 1 281 2022-07-29 10:20:54
456 High-Priestess 230,740 151 - 0 - 0 - 1 - 0 148 2022-07-29 10:20:22
32 Adcar [SR] 2,960,145 2,873 - 17 - 0 - 2 - 3 1,376 2022-07-29 10:19:47
4,026 The Disappearance of Hatsune Miku -Theatrical Version- 491,880 321 - 2 - 2 - 1 - 1 315 2022-07-29 10:16:32
2,317 The Disappearance of Hatsune Miku -Theatrical Version- 1,678,575 1,081 - 5 - 0 - 1 - 2 1,083 2022-07-29 10:15:31
4,172 The Disappearance of Hatsune Miku -Theatrical Version- 457,405 291 - 5 - 0 - 0 - 1 296 2022-07-29 10:14:06
79 The Disappearance of Hatsune Miku -Theatrical Version- [PB] 2,983,060 1,950 - 8 - 0 - 2 - 1 1,909 2022-07-29 10:13:27
297 J-CORE SLi//CER Technique 639,930 440 - 2 - 0 - 2 - 0 398 2022-07-29 10:11:05
957 Hyper Weaboo Vodka Shots 371,815 247 - 1 - 0 - 1 - 0 236 2022-07-29 10:10:10
43 Hyper Weaboo Vodka Shots [PB] 2,583,425 2,079 - 7 - 0 - 3 - 1 1,439 2022-07-29 10:09:47
233 Hyper Weaboo Vodka Shots [PB] 1,544,600 1,639 - 5 - 1 - 4 - 2 643 2022-07-29 10:07:40
329 VIS::CRACKED 993,420 644 - 2 - 0 - 1 - 1 639 2022-07-28 13:52:08
28 Eternal Peace Is Nothing But An Illusion [FC] [PB] 2,906,955 1,873 - 3 - 0 - 0 - 1 1,876 2022-07-28 13:37:57
3,624 Playing Super Mario World While Taking Mushrooms 895,625 577 - 1 - 0 - 0 - 0 578 2022-07-28 11:53:00
64 Boxel Adventure 1,215,490 1,229 - 8 - 0 - 2 - 2 538 2022-07-28 11:52:02
1,394 Epileptic Crisis [Oni] 401,115 373 - 1 - 0 - 1 - 0 196 2022-07-28 11:50:28
65 UR+ MusicEater LV99 [PB] 1,719,840 1,621 - 9 - 1 - 4 - 0 827 2022-07-28 11:49:14
328 Six Acid Strings 621,440 404 - 2 - 0 - 1 - 0 399 2022-07-28 11:47:10
1,846 Heterochromia Iridis 742,715 485 - 1 - 0 - 1 - 0 476 2022-07-28 11:45:48
1,569 Heterochromia Iridis 882,990 745 - 2 - 0 - 1 - 0 473 2022-07-28 11:45:15
115 DISCHARGE RUSH [PB] 2,518,315 1,865 - 19 - 0 - 2 - 2 1,488 2022-07-28 11:44:02
128 cold (Kurorak's Bootleg) 2,471,820 1,718 - 8 - 0 - 4 - 2 1,526 2022-07-28 11:41:51
52 cold (Kurorak's Bootleg) [PB] 2,641,045 1,735 - 15 - 0 - 1 - 1 1,683 2022-07-28 11:39:43
12 You Show [FC] [PB] 2,840,600 1,831 - 2 - 0 - 0 - 0 1,833 2022-07-28 11:36:03
419 A Dichroic Glass Snafu 2,219,665 1,632 - 5 - 0 - 1 - 0 1,321 2022-07-28 11:33:48
49 Exam Cram [Oni] [PB] 1,829,425 1,569 - 3 - 0 - 1 - 2 966 2022-07-28 11:31:30
5,451 Rave 7 349,475 223 - 3 - 0 - 0 - 0 226 2022-07-28 11:29:33
164 The Bird's Snapshot Lifespan 1,886,080 1,215 - 8 - 0 - 1 - 3 1,216 2022-07-28 11:29:07
42 The Bird's Snapshot Lifespan [PB] 2,816,250 2,064 - 10 - 0 - 2 - 4 1,679 2022-07-28 11:27:05
286 You Universe [PB] 1,485,505 1,276 - 35 - 2 - 3 - 5 775 2022-07-28 11:23:32
71 Make the Fire Burn [PB] 2,922,330 2,650 - 16 - 0 - 5 - 1 1,462 2022-07-28 11:21:06
574 Odd-22 894,565 591 - 3 - 0 - 1 - 0 569 2022-07-28 11:17:04
396 Odd-22 1,593,555 1,432 - 13 - 0 - 2 - 0 803 2022-07-28 11:16:01
61 Odd-22 [PB] 2,953,190 2,244 - 12 - 0 - 1 - 0 1,716 2022-07-28 11:13:38
1,153 Odd-22 [1.1x] 12,400 8 - 0 - 0 - 0 - 0 8 2022-07-28 11:11:05
817 Music -corrupted mix- 909,760 604 - 8 - 0 - 2 - 1 576 2022-07-26 12:20:03
5,424 Rave 7 356,675 226 - 5 - 0 - 0 - 0 231 2022-07-26 12:05:07
79 Star of the COME ON!! 509,400 327 - 2 - 0 - 0 - 0 329 2022-07-26 12:04:32
65 Boxel Adventure 242,750 151 - 7 - 1 - 4 - 2 159 2022-07-26 12:04:00
66 Boxel Adventure 119,485 73 - 5 - 0 - 0 - 2 78 2022-07-26 12:03:40
66 Boxel Adventure 107,920 74 - 2 - 0 - 1 - 1 67 2022-07-26 12:03:20
66 Boxel Adventure 123,175 77 - 3 - 0 - 0 - 0 80 2022-07-26 12:03:11
63 Boxel Adventure 1,010,240 647 - 5 - 1 - 0 - 2 653 2022-07-26 12:03:01
66 Boxel Adventure 110,450 74 - 4 - 0 - 1 - 2 69 2022-07-26 12:02:08
65 Boxel Adventure 150,780 94 - 4 - 0 - 0 - 1 98 2022-07-26 12:01:59
60 Boxel Adventure [1.1x] 120,710 96 - 2 - 0 - 2 - 1 68 2022-07-25 08:08:50
317 Exam Cram [Oni] 1,499,280 964 - 4 - 0 - 0 - 1 968 2022-07-24 17:48:33
148 You Show 1,599,500 1,027 - 6 - 0 - 0 - 0 1,033 2022-07-24 17:47:04
3,536 The Disappearance of Hatsune Miku -Theatrical Version- 668,115 430 - 7 - 0 - 1 - 0 430 2022-07-24 17:45:41
594 I'm A Fucking Idiot 218,900 135 - 7 - 1 - 1 - 1 143 2022-07-24 17:44:50
602 Odd-22 772,660 497 - 1 - 1 - 0 - 1 499 2022-07-24 17:44:26
69 UR+ MusicEater LV99 987,020 753 - 9 - 1 - 2 - 2 571 2022-07-24 17:43:06
75 UR+ MusicEater LV99 464,120 298 - 2 - 0 - 1 - 1 300 2022-07-24 17:42:12
679 OWA Raged In Vegas (Fuck Bees) 2,224,885 1,433 - 5 - 0 - 2 - 1 1,436 2022-07-24 17:41:04
5,486 Rave 7 332,040 216 - 3 - 1 - 2 - 1 213 2022-07-24 17:38:53
180 Brrrreeed Cicadididi 1,947,005 1,373 - 9 - 0 - 2 - 0 1,190 2022-07-24 17:38:10
58 toromi hearts 2 [SR] 3,916,145 2,521 - 7 - 0 - 1 - 1 2,528 2022-07-24 17:36:16
97 Excuse My Rudeness, but Could You Please RIP? (t+pazolite Remix) [SR] 2,266,180 1,513 - 6 - 0 - 2 - 0 1,433 2022-07-24 17:33:12
23 Star of the COME ON!! [SR] 2,873,475 2,333 - 25 - 2 - 2 - 2 1,584 2022-07-24 17:31:09
55 Boxel Adventure 92,450 58 - 2 - 0 - 0 - 0 60 2022-07-24 17:27:35
55 Boxel Adventure 262,360 166 - 4 - 0 - 0 - 2 170 2022-07-24 17:27:08
27 Boxel Adventure [FC] [PB] 2,723,070 1,747 - 12 - 0 - 0 - 4 1,759 2022-07-24 17:25:44
53 Boxel Adventure [SR] 112,010 69 - 4 - 0 - 0 - 2 73 2022-07-24 17:23:16
1,289 Rave 7 1,652,685 1,142 - 3 - 2 - 1 - 2 1,024 2022-07-13 09:58:55
4,397 Rave 7 672,565 430 - 5 - 0 - 1 - 0 435 2022-07-13 09:56:45
842 Powerflux 754,610 705 - 4 - 0 - 4 - 0 367 2022-07-13 09:55:21
1,846 Powerflux 22,975 14 - 1 - 0 - 0 - 0 15 2022-07-13 09:54:31
596 Odd-22 787,705 511 - 1 - 0 - 2 - 0 507 2022-07-13 09:54:09
139 Robotomy 2,187,090 1,675 - 4 - 2 - 1 - 3 1,265 2022-07-13 09:52:53
2,448 Fushigi Usagi Milk Tei 583,390 391 - 6 - 0 - 1 - 0 367 2022-07-13 09:49:54
323 Masterpiece [2x] 786,860 806 - 20 - 2 - 3 - 6 339 2022-07-13 09:41:13
2,252 Science Genius Girl (Robotkid's Lameboy Mix) [2x] 1,075,915 798 - 37 - 6 - 1 - 9 627 2022-07-13 09:37:13
593 Toxic [1.7x] [FC] 1,947,865 1,243 - 15 - 2 - 0 - 1 1,260 2022-07-13 09:30:55
301 Star Wars Anthology [1.6x] 1,384,005 1,297 - 1 - 0 - 2 - 0 671 2022-07-13 09:14:50
1,013 Vi Sitter I Ventrilo Och Spelar DotA [2x] [FC] 1,462,630 942 - 2 - 0 - 0 - 1 944 2022-07-13 09:03:13
556 Insomnia (Acid Paradox remix) [1.7x] 927,465 709 - 3 - 0 - 1 - 0 537 2022-07-13 08:59:14
4,059 The Disappearance of Hatsune Miku -Theatrical Version- 434,805 313 - 1 - 0 - 2 - 0 263 2022-07-10 14:25:29
91 Symphonies Of Suckness [SR] 2,719,255 2,823 - 21 - 0 - 7 - 0 1,163 2022-07-10 14:22:44
2,160 You Universe [PB] 121,415 78 - 3 - 0 - 1 - 0 78 2022-07-10 14:18:53
251 VIS::CRACKED 2,728,120 1,753 - 12 - 0 - 1 - 1 1,761 2022-07-10 14:17:55
853 Music -corrupted mix- 846,565 550 - 5 - 0 - 1 - 0 543 2022-07-10 14:15:28
1,470 cold (Kurorak's Bootleg) 631,705 408 - 7 - 0 - 2 - 0 406 2022-07-10 14:14:12
181 The Bird's Snapshot Lifespan 906,110 583 - 4 - 0 - 2 - 1 585 2022-07-10 14:13:12
1 2 3 4 5 6 7 8 9 10 11 12 13